DLH3W EDDF-KIAD

Flight info

Callsign DLH3W
Flight time 8h 41m
Altitude 36000
Route OBOKA Z28 DIBIR DCT BUDIP DCT GISEB DCT RAVLO Y70 OTBED DCT ABLUC DCT OZRAT DCT WETFI DCT ASKUP DCT REVNU DCT RESNO/M083F370 NATE NEEKO/N0474F380 DCT DANOL/N0471F400 KAYCC KYLOH BAF HYPER9
Aircraft A346/H-SDE2E3FGHIJ3J4J5M1P2RWXYZ/LB1D1

Departure

Time 2026-04-10 11:49
Airport Frankfurt Main Airport (EDDF)

Arrival

Time 2026-04-10 20:30
Airport Washington Dulles International Airport (KIAD)
Time Latitude Longitude Altitude Speed Heading
2026-04-10 11:21 50.04676 8.56044 371 ft 0 kts 340°
2026-04-10 11:21 50.04666 8.56049 370 ft 0 kts 340°
2026-04-10 11:37 50.04646 8.56062 371 ft 4 kts 332°
2026-04-10 11:38 50.04625 8.56084 368 ft 4 kts 317°
2026-04-10 11:38 50.04609 8.56114 369 ft 4 kts 297°
2026-04-10 11:38 50.04602 8.56148 369 ft 4 kts 271°
2026-04-10 11:38 50.04606 8.56180 366 ft 1 kts 250°
2026-04-10 11:39 50.04602 8.56165 364 ft 4 kts 250°
2026-04-10 11:39 50.04593 8.56125 371 ft 4 kts 250°
2026-04-10 11:39 50.04584 8.56086 370 ft 4 kts 249°
2026-04-10 11:39 50.04581 8.56076 369 ft 0 kts 249°
2026-04-10 11:41 50.04580 8.56072 369 ft 2 kts 249°
2026-04-10 11:41 50.04570 8.56031 370 ft 7 kts 249°
2026-04-10 11:42 50.04532 8.55967 367 ft 10 kts 207°
2026-04-10 11:42 50.04463 8.55925 371 ft 12 kts 196°
2026-04-10 11:42 50.04407 8.55914 369 ft 11 kts 180°
2026-04-10 11:42 50.04314 8.55946 364 ft 15 kts 160°
2026-04-10 11:43 50.04217 8.55921 364 ft 11 kts 197°
2026-04-10 11:43 50.04131 8.55949 366 ft 14 kts 160°
2026-04-10 11:43 50.04077 8.56033 366 ft 13 kts 91°
2026-04-10 11:43 50.04102 8.56174 367 ft 14 kts 70°
2026-04-10 11:44 50.04140 8.56333 367 ft 16 kts 70°
2026-04-10 11:44 50.04179 8.56496 370 ft 16 kts 70°
2026-04-10 11:44 50.04219 8.56666 371 ft 17 kts 70°
2026-04-10 11:44 50.04260 8.56837 369 ft 17 kts 69°
2026-04-10 11:45 50.04306 8.57026 372 ft 21 kts 69°
2026-04-10 11:45 50.04358 8.57245 373 ft 22 kts 70°
2026-04-10 11:45 50.04414 8.57481 373 ft 24 kts 69°
2026-04-10 11:45 50.04474 8.57728 377 ft 25 kts 69°
2026-04-10 11:46 50.04524 8.57941 373 ft 21 kts 70°
2026-04-10 11:46 50.04579 8.58168 376 ft 23 kts 70°
2026-04-10 11:46 50.04632 8.58392 379 ft 15 kts 69°
2026-04-10 11:46 50.04650 8.58526 381 ft 11 kts 112°
2026-04-10 11:47 50.04609 8.58579 379 ft 0 kts 158°
2026-04-10 11:47 50.04599 8.58585 381 ft 5 kts 158°
2026-04-10 11:48 50.04535 8.58617 381 ft 12 kts 177°
2026-04-10 11:48 50.04474 8.58533 382 ft 14 kts 249°
2026-04-10 11:48 50.04419 8.58309 378 ft 45 kts 249°
2026-04-10 11:48 50.04241 8.57563 374 ft 102 kts 250°
2026-04-10 11:49 50.03928 8.56250 367 ft 152 kts 249°
2026-04-10 11:49 50.03498 8.54524 454 ft 182 kts 252°
2026-04-10 11:49 50.03065 8.52698 1018 ft 183 kts 252°
2026-04-10 11:49 50.02591 8.50834 1570 ft 188 kts 241°
2026-04-10 11:50 50.01606 8.49476 2017 ft 197 kts 202°
2026-04-10 11:50 50.00271 8.48826 2381 ft 206 kts 197°
2026-04-10 11:50 49.98852 8.48238 2664 ft 216 kts 196°
2026-04-10 11:50 49.97400 8.47626 3219 ft 215 kts 196°
2026-04-10 11:51 49.95957 8.47005 3774 ft 215 kts 197°
2026-04-10 11:51 49.94488 8.46303 4113 ft 227 kts 205°
2026-04-10 11:51 49.93290 8.44642 4343 ft 239 kts 247°
2026-04-10 11:51 49.93040 8.42071 4653 ft 250 kts 285°
2026-04-10 11:52 49.93850 8.39669 5104 ft 257 kts 312°
2026-04-10 11:52 49.95058 8.37600 5842 ft 259 kts 313°
2026-04-10 11:52 49.96231 8.35459 6615 ft 261 kts 310°
2026-04-10 11:52 49.97374 8.33262 7393 ft 261 kts 309°
2026-04-10 11:53 49.98473 8.31081 8234 ft 259 kts 307°
2026-04-10 11:53 49.99558 8.28859 9117 ft 256 kts 306°
2026-04-10 11:53 50.00622 8.26647 10008 ft 254 kts 304°
2026-04-10 11:53 50.01680 8.24422 10728 ft 257 kts 304°
2026-04-10 11:54 50.02775 8.22110 11061 ft 273 kts 304°
2026-04-10 11:54 50.03935 8.19656 11370 ft 289 kts 304°
2026-04-10 11:54 50.05165 8.17056 11673 ft 305 kts 304°
2026-04-10 11:54 50.06459 8.14321 11970 ft 322 kts 304°
2026-04-10 11:55 50.07823 8.11440 12268 ft 337 kts 304°
2026-04-10 11:55 50.09236 8.08452 12784 ft 346 kts 304°
2026-04-10 11:55 50.10648 8.05464 13523 ft 348 kts 304°
2026-04-10 11:55 50.12084 8.02410 14186 ft 351 kts 304°
2026-04-10 11:56 50.13529 7.99334 14791 ft 353 kts 304°
2026-04-10 11:56 50.14980 7.96241 15456 ft 354 kts 304°
2026-04-10 11:56 50.16441 7.93124 16048 ft 357 kts 304°
2026-04-10 11:56 50.17917 7.89978 16621 ft 359 kts 304°
2026-04-10 11:57 50.19397 7.86820 17256 ft 361 kts 304°
2026-04-10 11:57 50.20883 7.83643 17933 ft 362 kts 304°
2026-04-10 11:57 50.22373 7.80459 18562 ft 363 kts 304°
2026-04-10 11:57 50.23920 7.77324 19121 ft 366 kts 309°
2026-04-10 11:58 50.25781 7.74579 19738 ft 369 kts 318°
2026-04-10 11:58 50.27920 7.72333 20368 ft 373 kts 326°
2026-04-10 11:58 50.30269 7.70560 20975 ft 376 kts 330°
2026-04-10 11:58 50.32633 7.68912 21569 ft 377 kts 330°
2026-04-10 11:59 50.35036 7.67261 22155 ft 378 kts 330°
2026-04-10 11:59 50.37445 7.65610 22722 ft 378 kts 330°
2026-04-10 11:59 50.39860 7.63952 23324 ft 379 kts 330°
2026-04-10 11:59 50.42280 7.62290 23878 ft 379 kts 330°
2026-04-10 12:00 50.44693 7.60628 24350 ft 380 kts 330°
2026-04-10 12:00 50.47123 7.58951 24723 ft 382 kts 330°
2026-04-10 12:00 50.49563 7.57264 25121 ft 384 kts 330°
2026-04-10 12:00 50.52019 7.55558 25560 ft 385 kts 329°
2026-04-10 12:01 50.54433 7.53716 25931 ft 386 kts 327°
2026-04-10 12:01 50.56799 7.51693 26330 ft 387 kts 324°
2026-04-10 12:01 50.59086 7.49522 26710 ft 387 kts 322°
2026-04-10 12:01 50.61365 7.47234 27098 ft 389 kts 322°
2026-04-10 12:02 50.63646 7.44919 27451 ft 392 kts 322°
2026-04-10 12:02 50.65943 7.42572 27819 ft 394 kts 321°
2026-04-10 12:02 50.68247 7.40209 28234 ft 395 kts 321°
2026-04-10 12:02 50.70498 7.37743 28716 ft 392 kts 318°
2026-04-10 12:03 50.72603 7.35031 29289 ft 387 kts 314°
2026-04-10 12:03 50.74550 7.32120 29860 ft 383 kts 311°
2026-04-10 12:03 50.76344 7.29021 30366 ft 380 kts 308°
2026-04-10 12:03 50.77977 7.25749 30809 ft 378 kts 304°
2026-04-10 12:04 50.79519 7.22376 31226 ft 377 kts 304°
2026-04-10 12:04 50.81046 7.19009 31635 ft 376 kts 304°
2026-04-10 12:04 50.82566 7.15634 32023 ft 376 kts 305°
2026-04-10 12:04 50.84080 7.12254 32410 ft 375 kts 305°
2026-04-10 12:05 50.85588 7.08878 32785 ft 375 kts 305°
2026-04-10 12:05 50.87090 7.05502 33146 ft 374 kts 305°
2026-04-10 12:05 50.88588 7.02131 33523 ft 374 kts 305°
2026-04-10 12:05 50.90086 6.98752 33879 ft 373 kts 306°
2026-04-10 12:06 50.91587 6.95358 34250 ft 373 kts 306°
2026-04-10 12:06 50.93079 6.91986 34533 ft 373 kts 306°
2026-04-10 12:06 50.94555 6.88649 34737 ft 375 kts 306°
2026-04-10 12:06 50.96059 6.85243 34910 ft 378 kts 305°
2026-04-10 12:07 50.97571 6.81811 35117 ft 380 kts 305°
2026-04-10 12:07 51.00609 6.74902 35502 ft 383 kts 305°
2026-04-10 12:07 51.02137 6.71420 35676 ft 385 kts 305°
2026-04-10 12:08 51.03673 6.67916 35857 ft 387 kts 305°
2026-04-10 12:08 51.05211 6.64398 36029 ft 388 kts 304°
2026-04-10 12:08 51.06770 6.60828 36155 ft 391 kts 304°
2026-04-10 12:09 51.09907 6.53628 36174 ft 396 kts 304°
2026-04-10 12:09 51.13050 6.46394 36178 ft 397 kts 304°
2026-04-10 12:10 51.16188 6.39151 36206 ft 397 kts 304°
2026-04-10 12:10 51.19310 6.31929 36192 ft 396 kts 304°
2026-04-10 12:11 51.22430 6.24688 36173 ft 396 kts 304°
2026-04-10 12:11 51.25550 6.17426 36161 ft 396 kts 304°
2026-04-10 12:12 51.28662 6.10116 36168 ft 398 kts 303°
2026-04-10 12:12 51.31696 6.02694 36160 ft 398 kts 303°
2026-04-10 12:13 51.34720 5.95277 36164 ft 398 kts 303°
2026-04-10 12:13 51.37961 5.88085 36164 ft 398 kts 307°
2026-04-10 12:14 51.41592 5.81354 36167 ft 399 kts 310°
2026-04-10 12:14 51.45013 5.74356 36183 ft 398 kts 306°
2026-04-10 12:15 51.48325 5.67204 36179 ft 399 kts 306°
2026-04-10 12:15 51.51651 5.60060 36180 ft 399 kts 306°
2026-04-10 12:16 51.54987 5.52914 36177 ft 399 kts 306°
2026-04-10 12:16 51.58301 5.45810 36187 ft 399 kts 306°
2026-04-10 12:17 51.61634 5.38653 36173 ft 399 kts 306°
2026-04-10 12:17 51.64966 5.31479 36146 ft 399 kts 306°
2026-04-10 12:18 51.68300 5.24289 36170 ft 401 kts 305°
2026-04-10 12:18 51.71643 5.17054 36178 ft 400 kts 305°
2026-04-10 12:19 51.74968 5.09835 36182 ft 400 kts 305°
2026-04-10 12:19 51.78286 5.02613 36182 ft 400 kts 305°
2026-04-10 12:20 51.81598 4.95382 36176 ft 400 kts 305°
2026-04-10 12:20 51.84910 4.88125 36176 ft 400 kts 305°
2026-04-10 12:21 51.88211 4.80855 36148 ft 401 kts 304°
2026-04-10 12:21 51.90957 4.74790 36160 ft 401 kts 304°
2026-04-10 12:22 51.94792 4.66296 36180 ft 401 kts 304°
2026-04-10 12:22 51.98086 4.58982 36189 ft 401 kts 304°
2026-04-10 12:23 52.01374 4.51657 36177 ft 401 kts 304°
2026-04-10 12:23 52.04124 4.45518 36150 ft 401 kts 304°
2026-04-10 12:24 52.07401 4.38175 36158 ft 401 kts 304°
2026-04-10 12:24 52.10675 4.30825 36170 ft 401 kts 304°
2026-04-10 12:25 52.13944 4.23465 36169 ft 401 kts 304°
2026-04-10 12:25 52.17188 4.16139 36170 ft 401 kts 304°
2026-04-10 12:26 52.20444 4.08765 36179 ft 401 kts 304°
2026-04-10 12:26 52.23707 4.01358 36190 ft 401 kts 304°
2026-04-10 12:27 52.26957 3.93955 36168 ft 401 kts 303°
2026-04-10 12:27 52.30209 3.86528 36179 ft 402 kts 303°
2026-04-10 12:28 52.33461 3.79075 36179 ft 402 kts 303°
2026-04-10 12:28 52.36709 3.71609 36176 ft 402 kts 303°
2026-04-10 12:29 52.39952 3.64137 36174 ft 402 kts 303°
2026-04-10 12:29 52.43189 3.56657 36172 ft 402 kts 303°
2026-04-10 12:30 52.46401 3.49211 36172 ft 402 kts 303°
2026-04-10 12:30 52.49636 3.41703 36183 ft 403 kts 302°
2026-04-10 12:31 52.52885 3.34122 36169 ft 403 kts 302°
2026-04-10 12:31 52.56087 3.26631 36169 ft 403 kts 302°
2026-04-10 12:32 52.59309 3.19074 36174 ft 403 kts 302°
2026-04-10 12:32 52.62529 3.11500 36173 ft 403 kts 302°
2026-04-10 12:33 52.65740 3.03925 36168 ft 403 kts 302°
2026-04-10 12:33 52.68952 2.96327 36167 ft 403 kts 302°
2026-04-10 12:34 52.72153 2.88734 36173 ft 403 kts 302°
2026-04-10 12:34 52.75371 2.81131 36180 ft 404 kts 302°
2026-04-10 12:35 52.78587 2.73508 36172 ft 404 kts 302°
2026-04-10 12:35 52.81799 2.65868 36170 ft 404 kts 302°
2026-04-10 12:36 52.84990 2.58258 36166 ft 404 kts 302°
2026-04-10 12:36 52.88194 2.50595 36163 ft 404 kts 302°
2026-04-10 12:37 52.91396 2.42914 36165 ft 404 kts 301°
2026-04-10 12:37 52.94591 2.35223 36164 ft 404 kts 301°
2026-04-10 12:38 52.97776 2.27531 36163 ft 404 kts 301°
2026-04-10 12:38 53.00844 2.19769 36170 ft 404 kts 297°
2026-04-10 12:39 53.03441 2.11506 36156 ft 402 kts 292°
2026-04-10 12:39 53.05507 2.02864 36146 ft 401 kts 288°
2026-04-10 12:40 53.07023 1.93926 36155 ft 401 kts 282°
2026-04-10 12:40 53.08168 1.84841 36160 ft 401 kts 282°
2026-04-10 12:41 53.09287 1.75741 36158 ft 401 kts 282°
2026-04-10 12:41 53.10389 1.66641 36154 ft 401 kts 281°
2026-04-10 12:42 53.11482 1.57530 36152 ft 401 kts 281°
2026-04-10 12:42 53.12567 1.48418 36151 ft 400 kts 281°
2026-04-10 12:43 53.13640 1.39323 36148 ft 399 kts 281°
2026-04-10 12:43 53.14704 1.30232 36148 ft 399 kts 281°
2026-04-10 12:44 53.15761 1.21145 36144 ft 399 kts 281°
2026-04-10 12:44 53.16805 1.12110 36145 ft 399 kts 281°
2026-04-10 12:45 53.17849 1.03005 36144 ft 399 kts 281°
2026-04-10 12:45 53.18885 0.93926 36137 ft 398 kts 280°
2026-04-10 12:46 53.19912 0.84834 36137 ft 397 kts 280°
2026-04-10 12:46 53.20932 0.75754 36132 ft 397 kts 280°
2026-04-10 12:47 53.21944 0.66667 36132 ft 397 kts 280°
2026-04-10 12:47 53.22947 0.57587 36118 ft 397 kts 280°
2026-04-10 12:48 53.23937 0.48543 36113 ft 397 kts 280°
2026-04-10 12:48 53.24920 0.39492 36114 ft 395 kts 280°
2026-04-10 12:49 53.25900 0.30416 36124 ft 397 kts 279°
2026-04-10 12:49 53.26874 0.21311 36112 ft 397 kts 279°
2026-04-10 12:50 53.27841 0.12198 36111 ft 397 kts 279°
2026-04-10 12:50 53.28822 0.03090 36110 ft 397 kts 281°
2026-04-10 12:51 53.29998 -0.05898 36120 ft 397 kts 281°
2026-04-10 12:51 53.31184 -0.14927 36123 ft 396 kts 281°
2026-04-10 12:52 53.32363 -0.23949 36108 ft 396 kts 281°
2026-04-10 12:52 53.33538 -0.32990 36108 ft 396 kts 281°
2026-04-10 12:53 53.34705 -0.42020 36106 ft 396 kts 281°
2026-04-10 12:53 53.35866 -0.51065 36107 ft 396 kts 281°
2026-04-10 12:54 53.37012 -0.60048 36098 ft 396 kts 281°
2026-04-10 12:54 53.38160 -0.69099 36103 ft 396 kts 281°
2026-04-10 12:55 53.39300 -0.78151 36098 ft 396 kts 281°
2026-04-10 12:55 53.40434 -0.87211 36089 ft 396 kts 281°
2026-04-10 12:56 53.41559 -0.96269 36087 ft 396 kts 281°
2026-04-10 12:56 53.42679 -1.05326 36095 ft 396 kts 280°
2026-04-10 12:57 53.43791 -1.14378 36086 ft 396 kts 280°
2026-04-10 12:57 53.44894 -1.23441 36091 ft 396 kts 280°
2026-04-10 12:58 53.45990 -1.32504 36090 ft 396 kts 280°
2026-04-10 12:58 53.47072 -1.41511 36088 ft 396 kts 280°
2026-04-10 12:59 53.48155 -1.50580 36086 ft 396 kts 280°
2026-04-10 12:59 53.49235 -1.59668 36087 ft 395 kts 279°
2026-04-10 13:00 53.50304 -1.68743 36089 ft 394 kts 279°
2026-04-10 13:00 53.51359 -1.77790 36090 ft 394 kts 279°
2026-04-10 13:01 53.52403 -1.86778 36084 ft 394 kts 279°
2026-04-10 13:01 53.53447 -1.95834 36084 ft 394 kts 279°
2026-04-10 13:02 53.54484 -2.04888 36081 ft 394 kts 279°
2026-04-10 13:02 53.55516 -2.13938 36083 ft 394 kts 279°
2026-04-10 13:03 53.56537 -2.22994 36075 ft 393 kts 279°
2026-04-10 13:03 53.57552 -2.32066 36077 ft 394 kts 279°
2026-04-10 13:04 53.58561 -2.41138 36073 ft 393 kts 278°
2026-04-10 13:04 53.59563 -2.50207 36068 ft 393 kts 278°
2026-04-10 13:05 53.60558 -2.59288 36089 ft 393 kts 278°
2026-04-10 13:05 53.61542 -2.68287 36072 ft 392 kts 278°
2026-04-10 13:06 53.62525 -2.77400 36064 ft 392 kts 278°
2026-04-10 13:06 53.63494 -2.86447 36048 ft 392 kts 278°
2026-04-10 13:07 53.64451 -2.95447 36048 ft 392 kts 278°
2026-04-10 13:07 53.65407 -3.04502 36048 ft 392 kts 278°
2026-04-10 13:08 53.66361 -3.13593 36061 ft 392 kts 277°
2026-04-10 13:08 53.67305 -3.22636 36044 ft 390 kts 277°
2026-04-10 13:09 53.68543 -3.34668 36048 ft 390 kts 277°
2026-04-10 13:09 53.69466 -3.43723 36077 ft 391 kts 277°
2026-04-10 13:10 53.70389 -3.52833 36058 ft 393 kts 277°
2026-04-10 13:10 53.71306 -3.61950 36048 ft 393 kts 277°
2026-04-10 13:11 53.72216 -3.71014 36044 ft 393 kts 276°
2026-04-10 13:11 53.73117 -3.80141 36039 ft 393 kts 276°
2026-04-10 13:12 53.74012 -3.89273 36035 ft 393 kts 276°
2026-04-10 13:12 53.74901 -3.98414 36027 ft 393 kts 276°
2026-04-10 13:13 53.75783 -4.07548 36033 ft 393 kts 276°
2026-04-10 13:13 53.76659 -4.16692 36028 ft 393 kts 276°
2026-04-10 13:14 53.77532 -4.25840 36015 ft 393 kts 275°
2026-04-10 13:14 53.78385 -4.34927 36013 ft 393 kts 275°
2026-04-10 13:15 53.79237 -4.44080 36011 ft 393 kts 275°
2026-04-10 13:15 53.79929 -4.53269 36013 ft 391 kts 272°
2026-04-10 13:16 53.80277 -4.62472 36004 ft 391 kts 271°
2026-04-10 13:16 53.80603 -4.71676 36024 ft 391 kts 270°
2026-04-10 13:17 53.80913 -4.80871 35997 ft 390 kts 270°
2026-04-10 13:17 53.81210 -4.90070 35982 ft 390 kts 270°
2026-04-10 13:18 53.81498 -4.99254 35986 ft 390 kts 270°
2026-04-10 13:18 53.81780 -5.08439 35974 ft 390 kts 270°
2026-04-10 13:19 53.82054 -5.17573 35972 ft 390 kts 270°
2026-04-10 13:19 53.82325 -5.26773 35982 ft 390 kts 269°
2026-04-10 13:20 53.82585 -5.35970 35964 ft 390 kts 269°
2026-04-10 13:20 53.82853 -5.45162 35955 ft 391 kts 270°
2026-04-10 13:21 53.83466 -5.54347 35955 ft 393 kts 274°
2026-04-10 13:21 53.84398 -5.63506 35957 ft 394 kts 275°
2026-04-10 13:22 53.85343 -5.72664 35944 ft 394 kts 275°
2026-04-10 13:22 53.86286 -5.81825 35963 ft 395 kts 275°
2026-04-10 13:23 53.87230 -5.91013 35936 ft 395 kts 275°
2026-04-10 13:23 53.88162 -6.00169 35933 ft 395 kts 275°
2026-04-10 13:24 53.89136 -6.09355 35917 ft 396 kts 277°
2026-04-10 13:24 53.90481 -6.18462 35917 ft 398 kts 279°
2026-04-10 13:25 53.91932 -6.27544 35915 ft 398 kts 279°
2026-04-10 13:25 53.93385 -6.36623 35914 ft 398 kts 279°
2026-04-10 13:26 53.94831 -6.45728 35902 ft 398 kts 279°
2026-04-10 13:26 53.96269 -6.54832 35876 ft 398 kts 279°
2026-04-10 13:27 53.97694 -6.63888 35884 ft 398 kts 278°
2026-04-10 13:27 53.99119 -6.72994 35882 ft 398 kts 278°
2026-04-10 13:28 54.00538 -6.82109 35864 ft 398 kts 278°
2026-04-10 13:28 54.01955 -6.91235 35874 ft 398 kts 278°
2026-04-10 13:29 54.03360 -7.00364 35855 ft 398 kts 278°
2026-04-10 13:29 54.04758 -7.09508 35867 ft 399 kts 278°
2026-04-10 13:30 54.06144 -7.18613 35835 ft 399 kts 278°
2026-04-10 13:30 54.07534 -7.27795 35830 ft 399 kts 277°
2026-04-10 13:31 54.08914 -7.36968 35838 ft 399 kts 277°
2026-04-10 13:31 54.10294 -7.46158 35830 ft 399 kts 277°
2026-04-10 13:32 54.11661 -7.55347 35812 ft 399 kts 277°
2026-04-10 13:32 54.13021 -7.64552 35781 ft 399 kts 277°
2026-04-10 13:33 54.14368 -7.73711 35793 ft 399 kts 277°
2026-04-10 13:33 54.15716 -7.82928 35790 ft 399 kts 277°
2026-04-10 13:34 54.17054 -7.92135 35765 ft 399 kts 277°
2026-04-10 13:34 54.18389 -8.01353 35767 ft 399 kts 276°
2026-04-10 13:35 54.19716 -8.10594 35738 ft 400 kts 276°
2026-04-10 13:35 54.21028 -8.19786 35742 ft 400 kts 276°
2026-04-10 13:36 54.22341 -8.29032 35761 ft 401 kts 276°
2026-04-10 13:36 54.23654 -8.38336 35726 ft 402 kts 275°
2026-04-10 13:37 54.24958 -8.47644 35773 ft 402 kts 275°
2026-04-10 13:37 54.26261 -8.56960 35799 ft 403 kts 275°
2026-04-10 13:38 54.27556 -8.66314 35773 ft 403 kts 275°
2026-04-10 13:38 54.28840 -8.75660 35772 ft 403 kts 275°
2026-04-10 13:39 54.30118 -8.85004 35752 ft 403 kts 275°
2026-04-10 13:39 54.31380 -8.94289 35729 ft 402 kts 275°
2026-04-10 13:40 54.32645 -9.03651 35692 ft 403 kts 275°
2026-04-10 13:40 54.33905 -9.13021 35669 ft 404 kts 274°
2026-04-10 13:41 54.35163 -9.22458 35620 ft 406 kts 274°
2026-04-10 13:41 54.36415 -9.31914 35622 ft 406 kts 274°
2026-04-10 13:42 54.37660 -9.41368 35616 ft 406 kts 274°
2026-04-10 13:42 54.38900 -9.50852 35609 ft 408 kts 274°
2026-04-10 13:43 54.40140 -9.60397 35602 ft 409 kts 274°
2026-04-10 13:43 54.41377 -9.69975 35574 ft 413 kts 274°
2026-04-10 13:44 54.42617 -9.79664 35570 ft 416 kts 274°
2026-04-10 13:44 54.43850 -9.89334 35548 ft 416 kts 274°
2026-04-10 13:45 54.45082 -9.99070 35542 ft 416 kts 273°
2026-04-10 13:45 54.46304 -10.08806 35542 ft 416 kts 273°
2026-04-10 13:46 54.47549 -10.18542 35517 ft 417 kts 274°
2026-04-10 13:46 54.48821 -10.28312 35526 ft 421 kts 274°
2026-04-10 13:47 54.50097 -10.38190 35493 ft 423 kts 274°
2026-04-10 13:47 54.51370 -10.48103 35487 ft 423 kts 274°
2026-04-10 13:48 54.52631 -10.58006 35456 ft 423 kts 274°
2026-04-10 13:48 54.53886 -10.67936 35497 ft 423 kts 273°
2026-04-10 13:49 54.55128 -10.77848 35461 ft 426 kts 273°
2026-04-10 13:49 54.56380 -10.87899 35448 ft 430 kts 273°
2026-04-10 13:50 54.57630 -10.98015 35429 ft 431 kts 273°
2026-04-10 13:50 54.58873 -11.08138 35424 ft 431 kts 273°
2026-04-10 13:51 54.60107 -11.18270 35422 ft 431 kts 273°
2026-04-10 13:51 54.61335 -11.28423 35398 ft 431 kts 272°
2026-04-10 13:52 54.62544 -11.38497 35395 ft 431 kts 272°
2026-04-10 13:52 54.63753 -11.48651 35392 ft 431 kts 272°
2026-04-10 13:53 54.64952 -11.58803 35367 ft 431 kts 272°
2026-04-10 13:53 54.66144 -11.68964 35367 ft 431 kts 272°
2026-04-10 13:54 54.67327 -11.79129 35345 ft 431 kts 272°
2026-04-10 13:54 54.68502 -11.89305 35370 ft 432 kts 272°
2026-04-10 13:55 54.69672 -11.99554 35352 ft 437 kts 272°
2026-04-10 13:55 54.70851 -12.09946 35313 ft 441 kts 272°
2026-04-10 13:56 54.72021 -12.20304 35299 ft 441 kts 272°
2026-04-10 13:56 54.73189 -12.30736 35298 ft 441 kts 272°
2026-04-10 13:57 54.74160 -12.39485 35286 ft 441 kts 272°
2026-04-10 13:57 54.75303 -12.49858 35273 ft 441 kts 272°
2026-04-10 13:58 54.76446 -12.60342 35298 ft 445 kts 272°
2026-04-10 13:58 54.77590 -12.70923 35263 ft 446 kts 272°
2026-04-10 13:59 54.78729 -12.81521 35260 ft 446 kts 272°
2026-04-10 13:59 54.79858 -12.92127 35234 ft 446 kts 272°
2026-04-10 14:00 54.80969 -13.02655 35238 ft 446 kts 272°
2026-04-10 14:00 54.82079 -13.13287 35300 ft 448 kts 272°
2026-04-10 14:01 54.83188 -13.24042 35234 ft 454 kts 272°
2026-04-10 14:01 54.84301 -13.34848 35220 ft 454 kts 272°
2026-04-10 14:02 54.85402 -13.45657 35206 ft 454 kts 272°
2026-04-10 14:02 54.86494 -13.56484 35206 ft 454 kts 272°
2026-04-10 14:03 54.87570 -13.67255 35197 ft 454 kts 271°
2026-04-10 14:03 54.88639 -13.78104 35210 ft 457 kts 272°
2026-04-10 14:04 54.89710 -13.89046 35234 ft 461 kts 272°
2026-04-10 14:04 54.90245 -13.94545 35498 ft 460 kts 272°
2026-04-10 14:05 54.91304 -14.05479 36117 ft 457 kts 272°
2026-04-10 14:05 54.92348 -14.16403 36164 ft 457 kts 272°
2026-04-10 14:06 54.93383 -14.27336 36155 ft 457 kts 272°
2026-04-10 14:06 54.94409 -14.38319 36186 ft 462 kts 272°
2026-04-10 14:07 54.95431 -14.49336 36157 ft 464 kts 272°
2026-04-10 14:07 54.96459 -14.60517 36128 ft 464 kts 271°
2026-04-10 14:08 54.97469 -14.71624 36130 ft 464 kts 271°
2026-04-10 14:08 54.98460 -14.82677 36117 ft 464 kts 271°
2026-04-10 14:09 54.99550 -14.93806 36131 ft 469 kts 275°
2026-04-10 14:09 55.01227 -15.04921 36112 ft 478 kts 280°
2026-04-10 14:10 55.03523 -15.15883 36104 ft 482 kts 284°
2026-04-10 14:10 55.05969 -15.26789 36097 ft 482 kts 284°
2026-04-10 14:11 55.08405 -15.37697 36081 ft 482 kts 284°
2026-04-10 14:11 55.10828 -15.48625 36083 ft 482 kts 284°
2026-04-10 14:12 55.13233 -15.59562 36073 ft 481 kts 284°
2026-04-10 14:12 55.15625 -15.70472 36063 ft 480 kts 284°
2026-04-10 14:13 55.18008 -15.81403 36041 ft 480 kts 284°
2026-04-10 14:13 55.20385 -15.92369 36041 ft 480 kts 284°
2026-04-10 14:14 55.22748 -16.03329 36039 ft 480 kts 284°
2026-04-10 14:14 55.25101 -16.14305 36038 ft 479 kts 284°
2026-04-10 14:15 55.27436 -16.25268 36037 ft 479 kts 284°
2026-04-10 14:15 55.29763 -16.36233 36003 ft 479 kts 284°
2026-04-10 14:16 55.32081 -16.47211 35998 ft 479 kts 284°
2026-04-10 14:16 55.34374 -16.58137 35996 ft 478 kts 284°
2026-04-10 14:17 55.36669 -16.69131 35980 ft 478 kts 284°
2026-04-10 14:17 55.38954 -16.80141 35970 ft 478 kts 284°
2026-04-10 14:18 55.41227 -16.91167 35987 ft 479 kts 284°
2026-04-10 14:18 55.43505 -17.02270 35963 ft 481 kts 284°
2026-04-10 14:19 55.45777 -17.13385 35947 ft 481 kts 284°
2026-04-10 14:19 55.48038 -17.24522 35947 ft 482 kts 284°
2026-04-10 14:20 55.50291 -17.35674 35939 ft 481 kts 284°
2026-04-10 14:20 55.52514 -17.46748 35912 ft 481 kts 283°
2026-04-10 14:21 55.54742 -17.57905 35912 ft 481 kts 283°
2026-04-10 14:21 55.56960 -17.69086 35889 ft 482 kts 283°
2026-04-10 14:22 55.59169 -17.80293 35873 ft 483 kts 284°
2026-04-10 14:22 55.61382 -17.91532 35869 ft 483 kts 283°
2026-04-10 14:23 55.63576 -18.02771 35815 ft 482 kts 283°
2026-04-10 14:23 55.65759 -18.14029 35820 ft 482 kts 283°
2026-04-10 14:24 55.67908 -18.25215 35770 ft 482 kts 283°
2026-04-10 14:24 55.70062 -18.36476 35759 ft 482 kts 283°
2026-04-10 14:25 55.72217 -18.47772 35718 ft 482 kts 282°
2026-04-10 14:25 55.74358 -18.59066 35706 ft 483 kts 281°
2026-04-10 14:26 55.76490 -18.70371 35704 ft 482 kts 282°
2026-04-10 14:26 55.78603 -18.81693 35643 ft 482 kts 282°
2026-04-10 14:27 55.80693 -18.92948 35661 ft 482 kts 284°
2026-04-10 14:27 55.82802 -19.04293 35600 ft 481 kts 281°
2026-04-10 14:28 55.84878 -19.15594 35599 ft 480 kts 280°
2026-04-10 14:28 55.86942 -19.26861 35629 ft 477 kts 282°
2026-04-10 14:29 55.88988 -19.38202 35572 ft 481 kts 281°
2026-04-10 14:29 55.91036 -19.49587 35571 ft 483 kts 283°
2026-04-10 14:30 55.93103 -19.60983 35602 ft 480 kts 283°
2026-04-10 14:30 55.95126 -19.72365 35591 ft 480 kts 282°
2026-04-10 14:31 55.97134 -19.83738 35581 ft 480 kts 282°
2026-04-10 14:31 55.99129 -19.95074 35630 ft 480 kts 284°
2026-04-10 14:32 56.00950 -20.06598 35632 ft 480 kts 281°
2026-04-10 14:32 56.02611 -20.18183 35644 ft 480 kts 279°
2026-04-10 14:33 56.04241 -20.29781 35713 ft 480 kts 280°
2026-04-10 14:33 56.05859 -20.41378 35720 ft 480 kts 281°
2026-04-10 14:34 56.07488 -20.52990 35720 ft 479 kts 280°
2026-04-10 14:34 56.09105 -20.64597 35770 ft 477 kts 278°
2026-04-10 14:35 56.10679 -20.76170 35802 ft 479 kts 279°
2026-04-10 14:35 56.12259 -20.87792 35800 ft 479 kts 280°
2026-04-10 14:36 56.13822 -20.99345 35896 ft 480 kts 279°
2026-04-10 14:36 56.15391 -21.10981 35877 ft 478 kts 280°
2026-04-10 14:37 56.16933 -21.22641 35875 ft 480 kts 281°
2026-04-10 14:37 56.18488 -21.34348 35950 ft 480 kts 280°
2026-04-10 14:38 56.20024 -21.46021 35945 ft 479 kts 279°
2026-04-10 14:38 56.21538 -21.57718 35997 ft 480 kts 278°
2026-04-10 14:39 56.23033 -21.69414 36031 ft 480 kts 280°
2026-04-10 14:39 56.24528 -21.81024 36066 ft 478 kts 279°
2026-04-10 14:40 56.26009 -21.92672 36053 ft 477 kts 281°
2026-04-10 14:40 56.27475 -22.04379 36060 ft 480 kts 280°
2026-04-10 14:41 56.28947 -22.16118 36116 ft 479 kts 280°
2026-04-10 14:41 56.30407 -22.27844 36118 ft 478 kts 279°
2026-04-10 14:42 56.31828 -22.39505 36153 ft 478 kts 279°
2026-04-10 14:42 56.33252 -22.51248 36162 ft 479 kts 279°
2026-04-10 14:43 56.34672 -22.62970 36188 ft 477 kts 280°
2026-04-10 14:43 56.36072 -22.74677 36190 ft 477 kts 279°
2026-04-10 14:44 56.37458 -22.86422 36211 ft 480 kts 280°
2026-04-10 14:44 56.38618 -22.96211 36235 ft 479 kts 279°
2026-04-10 14:45 56.39995 -23.07973 36240 ft 477 kts 278°
2026-04-10 14:45 56.41346 -23.19726 36279 ft 477 kts 279°
2026-04-10 14:46 56.42699 -23.31474 36282 ft 476 kts 279°
2026-04-10 14:46 56.44042 -23.43233 36283 ft 475 kts 278°
2026-04-10 14:47 56.45356 -23.54983 36316 ft 476 kts 279°
2026-04-10 14:47 56.46663 -23.66699 36319 ft 477 kts 278°
2026-04-10 14:48 56.47966 -23.78471 36344 ft 476 kts 279°
2026-04-10 14:48 56.49254 -23.90222 36355 ft 475 kts 279°
2026-04-10 14:49 56.50526 -24.01984 36357 ft 477 kts 279°
2026-04-10 14:49 56.51802 -24.13774 36355 ft 474 kts 278°
2026-04-10 14:50 56.53048 -24.25521 36358 ft 475 kts 278°
2026-04-10 14:50 56.54280 -24.37226 36372 ft 476 kts 279°
2026-04-10 14:51 56.55517 -24.49031 36375 ft 475 kts 278°
2026-04-10 14:51 56.56732 -24.60790 36395 ft 474 kts 278°
2026-04-10 14:52 56.57936 -24.72605 36402 ft 477 kts 278°
2026-04-10 14:52 56.59143 -24.84448 36401 ft 476 kts 278°
2026-04-10 14:53 56.60327 -24.96257 36415 ft 475 kts 278°
2026-04-10 14:53 56.61489 -25.08007 36423 ft 477 kts 279°
2026-04-10 14:54 56.62660 -25.19857 36451 ft 474 kts 278°
2026-04-10 14:54 56.63801 -25.31586 36441 ft 471 kts 278°
2026-04-10 14:55 56.64934 -25.43324 36443 ft 471 kts 278°
2026-04-10 14:55 56.66059 -25.55092 36461 ft 471 kts 278°
2026-04-10 14:56 56.67163 -25.66815 36457 ft 471 kts 278°
2026-04-10 14:56 56.68262 -25.78608 36476 ft 474 kts 278°
2026-04-10 14:57 56.69352 -25.90356 36488 ft 471 kts 278°
2026-04-10 14:57 56.70419 -26.02072 36488 ft 468 kts 278°
2026-04-10 14:58 56.71478 -26.13814 36483 ft 472 kts 278°
2026-04-10 14:58 56.72535 -26.25584 36499 ft 469 kts 278°
2026-04-10 14:59 56.73571 -26.37295 36491 ft 468 kts 278°
2026-04-10 14:59 56.74597 -26.49040 36495 ft 471 kts 278°
2026-04-10 15:00 56.75611 -26.60759 36493 ft 469 kts 278°
2026-04-10 15:00 56.76611 -26.72492 36505 ft 468 kts 278°
2026-04-10 15:01 56.77607 -26.84254 36500 ft 470 kts 278°
2026-04-10 15:01 56.78591 -26.96016 36488 ft 468 kts 278°
2026-04-10 15:02 56.79561 -27.07759 36498 ft 467 kts 278°
2026-04-10 15:02 56.80516 -27.19478 36496 ft 470 kts 278°
2026-04-10 15:03 56.81466 -27.31260 36493 ft 467 kts 278°
2026-04-10 15:03 56.82397 -27.43006 36490 ft 467 kts 278°
2026-04-10 15:04 56.83325 -27.54795 36481 ft 469 kts 278°
2026-04-10 15:04 56.84242 -27.66591 36483 ft 469 kts 278°
2026-04-10 15:05 56.85598 -27.84340 36466 ft 469 kts 278°
2026-04-10 15:05 56.86488 -27.96172 36470 ft 469 kts 278°
2026-04-10 15:06 56.87358 -28.07915 36449 ft 466 kts 278°
2026-04-10 15:06 56.88216 -28.19639 36453 ft 463 kts 278°
2026-04-10 15:07 56.89062 -28.31336 36453 ft 463 kts 277°
2026-04-10 15:07 56.89896 -28.43032 36434 ft 463 kts 277°
2026-04-10 15:08 56.90719 -28.54737 36430 ft 462 kts 277°
2026-04-10 15:08 56.91530 -28.66431 36411 ft 462 kts 277°
2026-04-10 15:09 56.92324 -28.78047 36395 ft 462 kts 277°
2026-04-10 15:09 56.93107 -28.89710 36402 ft 458 kts 278°
2026-04-10 15:10 56.93878 -29.01270 36378 ft 458 kts 277°
2026-04-10 15:10 56.94642 -29.12890 36393 ft 460 kts 277°
2026-04-10 15:11 56.95391 -29.24517 36342 ft 457 kts 277°
2026-04-10 15:11 56.96126 -29.36039 36343 ft 457 kts 277°
2026-04-10 15:12 56.96857 -29.47705 36354 ft 460 kts 277°
2026-04-10 15:12 56.97567 -29.59315 36310 ft 454 kts 278°
2026-04-10 15:13 56.98276 -29.70869 36321 ft 457 kts 277°
2026-04-10 15:13 56.98969 -29.82472 36315 ft 456 kts 277°
2026-04-10 15:14 56.99548 -29.94061 36307 ft 455 kts 274°
2026-04-10 15:14 56.99539 -30.05734 36313 ft 459 kts 269°
2026-04-10 15:15 56.98953 -30.17326 36307 ft 459 kts 266°
2026-04-10 15:15 56.98258 -30.28984 36304 ft 459 kts 266°
2026-04-10 15:16 56.97554 -30.40602 36307 ft 457 kts 266°
2026-04-10 15:16 56.96839 -30.52219 36310 ft 458 kts 266°
2026-04-10 15:17 56.96115 -30.63852 36300 ft 460 kts 266°
2026-04-10 15:17 56.95371 -30.75545 36300 ft 460 kts 265°
2026-04-10 15:18 56.94616 -30.87150 36286 ft 458 kts 266°
2026-04-10 15:18 56.93855 -30.98687 36295 ft 453 kts 267°
2026-04-10 15:19 56.93097 -31.10196 36297 ft 454 kts 267°
2026-04-10 15:19 56.92326 -31.21681 36276 ft 455 kts 266°
2026-04-10 15:20 56.91535 -31.33206 36286 ft 454 kts 267°
2026-04-10 15:20 56.90740 -31.44717 36285 ft 457 kts 266°
2026-04-10 15:21 56.89936 -31.56134 36282 ft 454 kts 266°
2026-04-10 15:21 56.89114 -31.67714 36295 ft 455 kts 266°
2026-04-10 15:22 56.88284 -31.79173 36282 ft 454 kts 265°
2026-04-10 15:22 56.87447 -31.90602 36304 ft 454 kts 266°
2026-04-10 15:23 56.86602 -32.02078 36304 ft 457 kts 266°
2026-04-10 15:23 56.85730 -32.13547 36310 ft 451 kts 266°
2026-04-10 15:24 56.84871 -32.24932 36327 ft 451 kts 265°
2026-04-10 15:24 56.84002 -32.36247 36352 ft 449 kts 266°
2026-04-10 15:25 56.83119 -32.47617 36353 ft 450 kts 266°
2026-04-10 15:25 56.82242 -32.58853 36381 ft 452 kts 266°
2026-04-10 15:26 56.81328 -32.70218 36350 ft 449 kts 266°
2026-04-10 15:26 56.80415 -32.81551 36378 ft 451 kts 265°
2026-04-10 15:27 56.79494 -32.92851 36412 ft 449 kts 265°
2026-04-10 15:27 56.78560 -33.04178 36414 ft 449 kts 265°
2026-04-10 15:28 56.77630 -33.15393 36448 ft 452 kts 265°
2026-04-10 15:28 56.76666 -33.26711 36445 ft 448 kts 265°
2026-04-10 15:29 56.75704 -33.38024 36462 ft 451 kts 265°
2026-04-10 15:29 56.74731 -33.49287 36476 ft 449 kts 265°
2026-04-10 15:30 56.73745 -33.60597 36510 ft 450 kts 266°
2026-04-10 15:30 56.72758 -33.71826 36516 ft 452 kts 265°
2026-04-10 15:31 56.71743 -33.83120 36533 ft 450 kts 265°
2026-04-10 15:31 56.70731 -33.94396 36494 ft 451 kts 265°
2026-04-10 15:32 56.69706 -34.05665 36529 ft 450 kts 265°
2026-04-10 15:32 56.68668 -34.16921 36564 ft 450 kts 265°
2026-04-10 15:33 56.67800 -34.26270 36564 ft 451 kts 265°
2026-04-10 15:33 56.66741 -34.37525 36586 ft 450 kts 265°
2026-04-10 15:34 56.65502 -34.50599 36587 ft 451 kts 265°
2026-04-10 15:34 56.64607 -34.60007 36577 ft 450 kts 264°
2026-04-10 15:35 56.63522 -34.71210 36609 ft 448 kts 265°
2026-04-10 15:35 56.62440 -34.82302 36625 ft 449 kts 264°
2026-04-10 15:36 56.61338 -34.93480 36628 ft 448 kts 264°
2026-04-10 15:36 56.60227 -35.04648 36629 ft 448 kts 265°
2026-04-10 15:37 56.59108 -35.15813 36645 ft 449 kts 264°
2026-04-10 15:37 56.57978 -35.26925 36634 ft 446 kts 264°
2026-04-10 15:38 56.56851 -35.37932 36663 ft 446 kts 264°
2026-04-10 15:38 56.55708 -35.48999 36667 ft 445 kts 264°
2026-04-10 15:39 56.54556 -35.60057 36688 ft 445 kts 264°
2026-04-10 15:39 56.53397 -35.71110 36682 ft 446 kts 264°
2026-04-10 15:40 56.52224 -35.82143 36668 ft 445 kts 264°
2026-04-10 15:40 56.51044 -35.93148 36693 ft 444 kts 264°
2026-04-10 15:41 56.49856 -36.04147 36717 ft 444 kts 264°
2026-04-10 15:41 56.48664 -36.15076 36717 ft 444 kts 264°
2026-04-10 15:42 56.47457 -36.26063 36714 ft 444 kts 264°
2026-04-10 15:42 56.46239 -36.37043 36735 ft 445 kts 263°
2026-04-10 15:43 56.45014 -36.47981 36713 ft 441 kts 263°
2026-04-10 15:43 56.43787 -36.58861 36756 ft 441 kts 263°
2026-04-10 15:44 56.42551 -36.69732 36753 ft 441 kts 263°
2026-04-10 15:44 56.41304 -36.80605 36771 ft 441 kts 263°
2026-04-10 15:45 56.40056 -36.91405 36771 ft 441 kts 263°
2026-04-10 15:45 56.38791 -37.02254 36754 ft 441 kts 263°
2026-04-10 15:46 56.37520 -37.13043 36781 ft 437 kts 263°
2026-04-10 15:46 56.36250 -37.23776 36787 ft 436 kts 263°
2026-04-10 15:47 56.34971 -37.34497 36790 ft 437 kts 263°
2026-04-10 15:47 56.33682 -37.45202 36791 ft 437 kts 263°
2026-04-10 15:48 56.32391 -37.55846 36807 ft 437 kts 263°
2026-04-10 15:48 56.31082 -37.66555 36807 ft 437 kts 263°
2026-04-10 15:49 56.29765 -37.77251 36821 ft 437 kts 263°
2026-04-10 15:49 56.28438 -37.87943 36821 ft 437 kts 263°
2026-04-10 15:50 56.27101 -37.98634 36842 ft 437 kts 263°
2026-04-10 15:50 56.25753 -38.09326 36841 ft 437 kts 262°
2026-04-10 15:51 56.24397 -38.20007 36843 ft 437 kts 262°
2026-04-10 15:51 56.23035 -38.30619 36841 ft 433 kts 263°
2026-04-10 15:52 56.21685 -38.41100 36849 ft 432 kts 263°
2026-04-10 15:52 56.20320 -38.51632 36870 ft 432 kts 262°
2026-04-10 15:53 56.18945 -38.62153 36873 ft 432 kts 262°
2026-04-10 15:53 56.17559 -38.72679 36890 ft 432 kts 262°
2026-04-10 15:54 56.16164 -38.83187 36860 ft 431 kts 262°
2026-04-10 15:54 56.14768 -38.93619 36896 ft 428 kts 262°
2026-04-10 15:55 56.13371 -39.04014 36902 ft 428 kts 262°
2026-04-10 15:55 56.11973 -39.14343 36903 ft 428 kts 262°
2026-04-10 15:56 56.10556 -39.24733 36917 ft 428 kts 262°
2026-04-10 15:56 56.09130 -39.35125 36921 ft 429 kts 262°
2026-04-10 15:57 56.07697 -39.45484 36917 ft 426 kts 262°
2026-04-10 15:57 56.06265 -39.55761 36926 ft 425 kts 262°
2026-04-10 15:58 56.04826 -39.66034 36944 ft 425 kts 262°
2026-04-10 15:58 56.03388 -39.76230 36944 ft 425 kts 262°
2026-04-10 15:59 56.01932 -39.86485 36959 ft 425 kts 262°
2026-04-10 15:59 56.00465 -39.96730 36963 ft 425 kts 261°
2026-04-10 16:00 55.98968 -40.06909 36947 ft 422 kts 261°
2026-04-10 16:00 55.97424 -40.17041 36974 ft 422 kts 260°
2026-04-10 16:01 55.95874 -40.27169 36973 ft 422 kts 260°
2026-04-10 16:01 55.94317 -40.37289 36984 ft 422 kts 260°
2026-04-10 16:02 55.92753 -40.47400 36995 ft 422 kts 260°
2026-04-10 16:02 55.91192 -40.57433 36957 ft 422 kts 260°
2026-04-10 16:03 55.89618 -40.67504 37000 ft 421 kts 260°
2026-04-10 16:03 55.88034 -40.77571 37011 ft 422 kts 259°
2026-04-10 16:04 55.86438 -40.87645 37022 ft 422 kts 259°
2026-04-10 16:04 55.84833 -40.97716 37019 ft 422 kts 259°
2026-04-10 16:05 55.83219 -41.07786 37033 ft 422 kts 259°
2026-04-10 16:05 55.81598 -41.17848 37012 ft 422 kts 259°
2026-04-10 16:06 55.79969 -41.27892 37047 ft 422 kts 259°
2026-04-10 16:06 55.78333 -41.37919 37048 ft 422 kts 259°
2026-04-10 16:07 55.76699 -41.47874 37059 ft 422 kts 259°
2026-04-10 16:07 55.75047 -41.57890 37059 ft 422 kts 259°
2026-04-10 16:08 55.73386 -41.67896 37059 ft 422 kts 259°
2026-04-10 16:08 55.71723 -41.77863 37056 ft 418 kts 258°
2026-04-10 16:09 55.70062 -41.87754 37069 ft 417 kts 258°
2026-04-10 16:09 55.68394 -41.97635 37087 ft 417 kts 258°
2026-04-10 16:10 55.66721 -42.07496 37086 ft 417 kts 258°
2026-04-10 16:10 55.65039 -42.17360 37104 ft 418 kts 258°
2026-04-10 16:11 55.63346 -42.27229 37083 ft 419 kts 258°
2026-04-10 16:11 55.61649 -42.37066 37088 ft 416 kts 257°
2026-04-10 16:12 55.59946 -42.46868 37107 ft 416 kts 257°
2026-04-10 16:13 55.57390 -42.61487 37119 ft 416 kts 257°
2026-04-10 16:13 55.55671 -42.71258 37121 ft 416 kts 257°
2026-04-10 16:14 55.53941 -42.81042 37116 ft 416 kts 257°
2026-04-10 16:14 55.52218 -42.90743 37118 ft 416 kts 257°
2026-04-10 16:15 55.50476 -43.00486 37129 ft 416 kts 257°
2026-04-10 16:15 55.48726 -43.10218 37129 ft 416 kts 257°
2026-04-10 16:16 55.46968 -43.19949 37131 ft 416 kts 257°
2026-04-10 16:16 55.45198 -43.29691 37133 ft 416 kts 256°
2026-04-10 16:17 55.43425 -43.39405 37137 ft 416 kts 256°
2026-04-10 16:17 55.41641 -43.49123 37129 ft 416 kts 256°
2026-04-10 16:18 55.39864 -43.58769 37142 ft 417 kts 256°
2026-04-10 16:18 55.38061 -43.68489 37134 ft 417 kts 256°
2026-04-10 16:19 55.36250 -43.78199 37154 ft 417 kts 256°
2026-04-10 16:19 55.34430 -43.87909 37150 ft 417 kts 256°
2026-04-10 16:20 55.32605 -43.97605 37133 ft 417 kts 256°
2026-04-10 16:20 55.30777 -44.07263 37154 ft 416 kts 255°
2026-04-10 16:21 55.28940 -44.16910 37157 ft 416 kts 255°
2026-04-10 16:21 55.27097 -44.26550 37166 ft 416 kts 255°
2026-04-10 16:22 55.25245 -44.36183 37162 ft 416 kts 255°
2026-04-10 16:22 55.23387 -44.45803 37171 ft 416 kts 255°
2026-04-10 16:23 55.21839 -44.53797 37156 ft 414 kts 255°
2026-04-10 16:23 55.19982 -44.63319 37173 ft 412 kts 255°
2026-04-10 16:24 55.18121 -44.72812 37177 ft 411 kts 255°
2026-04-10 16:24 55.16252 -44.82304 37177 ft 411 kts 255°
2026-04-10 16:25 55.14391 -44.91718 37190 ft 412 kts 254°
2026-04-10 16:25 55.12506 -45.01203 37182 ft 412 kts 254°
2026-04-10 16:26 55.10620 -45.10666 37175 ft 411 kts 253°
2026-04-10 16:26 55.08724 -45.20099 37184 ft 410 kts 253°
2026-04-10 16:27 55.06821 -45.29526 37190 ft 410 kts 253°
2026-04-10 16:27 55.04917 -45.38923 37200 ft 410 kts 253°
2026-04-10 16:28 55.03016 -45.48256 37189 ft 410 kts 253°
2026-04-10 16:28 55.01095 -45.57646 37185 ft 411 kts 253°
2026-04-10 16:29 54.99169 -45.67033 37181 ft 411 kts 253°
2026-04-10 16:29 54.97227 -45.76431 37193 ft 412 kts 253°
2026-04-10 16:30 54.95275 -45.85835 37192 ft 412 kts 253°
2026-04-10 16:30 54.93321 -45.95211 37197 ft 412 kts 252°
2026-04-10 16:31 54.91374 -46.04510 37194 ft 412 kts 252°
2026-04-10 16:31 54.89400 -46.13895 37173 ft 412 kts 252°
2026-04-10 16:32 54.87418 -46.23277 37208 ft 413 kts 252°
2026-04-10 16:32 54.85439 -46.32601 37198 ft 414 kts 252°
2026-04-10 16:33 54.83424 -46.42045 37198 ft 414 kts 252°
2026-04-10 16:33 54.81427 -46.51360 37194 ft 414 kts 252°
2026-04-10 16:34 54.79410 -46.60731 37192 ft 414 kts 252°
2026-04-10 16:34 54.77386 -46.70087 37179 ft 414 kts 252°
2026-04-10 16:35 54.75358 -46.79422 37191 ft 414 kts 252°
2026-04-10 16:35 54.73319 -46.88765 37192 ft 414 kts 252°
2026-04-10 16:36 54.71275 -46.98091 37196 ft 414 kts 251°
2026-04-10 16:36 54.69222 -47.07414 37182 ft 414 kts 251°
2026-04-10 16:37 54.67177 -47.16660 37182 ft 414 kts 251°
2026-04-10 16:37 54.65114 -47.25947 37175 ft 412 kts 251°
2026-04-10 16:38 54.63049 -47.35201 37181 ft 412 kts 251°
2026-04-10 16:38 54.60978 -47.44440 37184 ft 412 kts 251°
2026-04-10 16:39 54.58900 -47.53669 37203 ft 412 kts 251°
2026-04-10 16:39 54.56814 -47.62905 37171 ft 414 kts 251°
2026-04-10 16:40 54.54714 -47.72147 37150 ft 413 kts 251°
2026-04-10 16:40 54.52624 -47.81309 37165 ft 412 kts 250°
2026-04-10 16:41 54.50519 -47.90492 37168 ft 411 kts 250°
2026-04-10 16:41 54.48409 -47.99659 37168 ft 411 kts 250°
2026-04-10 16:42 54.46293 -48.08813 37154 ft 411 kts 250°
2026-04-10 16:42 54.44168 -48.17971 37155 ft 411 kts 250°
2026-04-10 16:43 54.42040 -48.27105 37139 ft 410 kts 250°
2026-04-10 16:43 54.39927 -48.36130 37146 ft 409 kts 250°
2026-04-10 16:44 54.37794 -48.45199 37149 ft 409 kts 250°
2026-04-10 16:44 54.35655 -48.54262 37149 ft 409 kts 250°
2026-04-10 16:45 54.33512 -48.63301 37139 ft 409 kts 250°
2026-04-10 16:45 54.31360 -48.72340 37135 ft 409 kts 250°
2026-04-10 16:46 54.29202 -48.81368 37136 ft 409 kts 250°
2026-04-10 16:46 54.27049 -48.90336 37133 ft 409 kts 250°
2026-04-10 16:47 54.24876 -48.99349 37132 ft 409 kts 250°
2026-04-10 16:47 54.22698 -49.08349 37119 ft 409 kts 250°
2026-04-10 16:48 54.20513 -49.17339 37117 ft 409 kts 249°
2026-04-10 16:48 54.18321 -49.26324 37092 ft 409 kts 249°
2026-04-10 16:49 54.16131 -49.35261 37114 ft 407 kts 249°
2026-04-10 16:49 54.13952 -49.44114 37117 ft 406 kts 249°
2026-04-10 16:50 54.11755 -49.53007 37115 ft 406 kts 249°
2026-04-10 16:50 54.09550 -49.61897 37112 ft 407 kts 249°
2026-04-10 16:51 54.07340 -49.70774 37115 ft 407 kts 249°
2026-04-10 16:51 54.05121 -49.79649 37107 ft 406 kts 249°
2026-04-10 16:52 54.02904 -49.88478 37107 ft 405 kts 249°
2026-04-10 16:52 54.00679 -49.97298 37115 ft 405 kts 249°
2026-04-10 16:53 53.98498 -50.06146 37124 ft 405 kts 249°
2026-04-10 16:53 53.96370 -50.15010 37115 ft 403 kts 249°
2026-04-10 16:54 53.94238 -50.23814 37108 ft 403 kts 249°
2026-04-10 16:54 53.92106 -50.32580 37099 ft 403 kts 248°
2026-04-10 16:55 53.89956 -50.41372 37099 ft 403 kts 248°
2026-04-10 16:55 53.87797 -50.50163 37103 ft 403 kts 248°
2026-04-10 16:56 53.85650 -50.58874 37096 ft 403 kts 248°
2026-04-10 16:56 53.83476 -50.67659 37094 ft 403 kts 248°
2026-04-10 16:57 53.81300 -50.76414 37093 ft 403 kts 248°
2026-04-10 16:57 53.79122 -50.85151 37090 ft 403 kts 248°
2026-04-10 16:58 53.76945 -50.93842 37098 ft 403 kts 248°
2026-04-10 16:58 53.74753 -51.02559 37087 ft 403 kts 248°
2026-04-10 16:59 53.72555 -51.11266 37084 ft 403 kts 248°
2026-04-10 16:59 53.70347 -51.19980 37084 ft 403 kts 248°
2026-04-10 17:00 53.68131 -51.28689 37075 ft 405 kts 248°
2026-04-10 17:00 53.65897 -51.37438 37087 ft 406 kts 248°
2026-04-10 17:01 53.63654 -51.46184 37087 ft 406 kts 248°
2026-04-10 17:01 53.61401 -51.54936 37081 ft 406 kts 248°
2026-04-10 17:02 53.59158 -51.63618 37074 ft 406 kts 247°
2026-04-10 17:02 53.56892 -51.72351 37074 ft 406 kts 247°
2026-04-10 17:03 53.54620 -51.81072 37066 ft 407 kts 247°
2026-04-10 17:03 53.52341 -51.89792 37075 ft 407 kts 247°
2026-04-10 17:04 53.50055 -51.98505 37065 ft 407 kts 247°
2026-04-10 17:04 53.47763 -52.07206 37067 ft 407 kts 247°
2026-04-10 17:05 53.45466 -52.15893 37068 ft 407 kts 247°
2026-04-10 17:05 53.43158 -52.24586 37067 ft 407 kts 247°
2026-04-10 17:06 53.40850 -52.33246 37061 ft 406 kts 247°
2026-04-10 17:06 53.38550 -52.41844 37094 ft 406 kts 247°
2026-04-10 17:07 53.36227 -52.50500 37060 ft 406 kts 247°
2026-04-10 17:07 53.33899 -52.59138 37065 ft 406 kts 247°
2026-04-10 17:08 53.31563 -52.67771 37061 ft 406 kts 247°
2026-04-10 17:08 53.29224 -52.76387 37045 ft 406 kts 247°
2026-04-10 17:09 53.26882 -52.84979 37050 ft 405 kts 247°
2026-04-10 17:09 53.24535 -52.93554 37051 ft 405 kts 246°
2026-04-10 17:10 53.22187 -53.02106 37045 ft 405 kts 246°
2026-04-10 17:10 53.19829 -53.10660 37051 ft 405 kts 246°
2026-04-10 17:11 53.17480 -53.19155 37052 ft 405 kts 246°
2026-04-10 17:11 53.15494 -53.26309 37045 ft 405 kts 246°
2026-04-10 17:12 53.12717 -53.36277 37164 ft 408 kts 246°
2026-04-10 17:12 53.11520 -53.40557 37535 ft 407 kts 246°
2026-04-10 17:12 53.10729 -53.43384 37795 ft 406 kts 246°
2026-04-10 17:12 53.09127 -53.49095 38029 ft 407 kts 246°
2026-04-10 17:13 53.08333 -53.51920 38037 ft 407 kts 246°
2026-04-10 17:13 53.05924 -53.60484 38047 ft 408 kts 246°
2026-04-10 17:14 53.03505 -53.69042 38049 ft 408 kts 246°
2026-04-10 17:14 53.01081 -53.77585 38036 ft 408 kts 246°
2026-04-10 17:15 52.98649 -53.86129 38039 ft 408 kts 246°
2026-04-10 17:15 52.96213 -53.94652 38037 ft 409 kts 246°
2026-04-10 17:16 52.93755 -54.03223 38047 ft 409 kts 246°
2026-04-10 17:16 52.91320 -54.11683 38044 ft 409 kts 246°
2026-04-10 17:17 52.88863 -54.20193 38019 ft 408 kts 246°
2026-04-10 17:17 52.86410 -54.28654 38031 ft 407 kts 246°
2026-04-10 17:18 52.83953 -54.37098 38042 ft 407 kts 246°
2026-04-10 17:18 52.81491 -54.45529 38042 ft 406 kts 245°
2026-04-10 17:19 52.79023 -54.53952 38045 ft 407 kts 245°
2026-04-10 17:19 52.76548 -54.62368 38061 ft 407 kts 245°
2026-04-10 17:20 52.74067 -54.70781 38030 ft 407 kts 245°
2026-04-10 17:20 52.71578 -54.79183 38034 ft 407 kts 245°
2026-04-10 17:21 52.67854 -54.91701 38034 ft 407 kts 245°
2026-04-10 17:21 52.65354 -55.00068 38037 ft 407 kts 245°
2026-04-10 17:22 52.62847 -55.08433 38024 ft 407 kts 245°
2026-04-10 17:22 52.60332 -55.16791 38015 ft 407 kts 245°
2026-04-10 17:23 52.57812 -55.25139 38025 ft 407 kts 245°
2026-04-10 17:23 52.55284 -55.33482 38026 ft 407 kts 245°
2026-04-10 17:24 52.52754 -55.41808 38026 ft 407 kts 245°
2026-04-10 17:24 52.50215 -55.50130 38018 ft 407 kts 245°
2026-04-10 17:25 52.47669 -55.58447 37987 ft 407 kts 245°
2026-04-10 17:25 52.45132 -55.66705 38014 ft 407 kts 245°
2026-04-10 17:26 52.42574 -55.75004 38025 ft 409 kts 244°
2026-04-10 17:26 52.39811 -55.83180 38019 ft 410 kts 240°
2026-04-10 17:27 52.36594 -55.90927 38017 ft 412 kts 237°
2026-04-10 17:27 52.33232 -55.98544 38017 ft 412 kts 237°
2026-04-10 17:28 52.29865 -56.06159 38007 ft 414 kts 237°
2026-04-10 17:28 52.26479 -56.13774 38016 ft 414 kts 237°
2026-04-10 17:29 52.23099 -56.21342 38030 ft 414 kts 236°
2026-04-10 17:29 52.19698 -56.28934 38036 ft 414 kts 236°
2026-04-10 17:30 52.16291 -56.36513 38019 ft 414 kts 236°
2026-04-10 17:30 52.12873 -56.44092 38059 ft 415 kts 236°
2026-04-10 17:31 52.09447 -56.51671 38060 ft 415 kts 236°
2026-04-10 17:31 52.06017 -56.59234 38071 ft 415 kts 236°
2026-04-10 17:32 52.02582 -56.66786 38083 ft 415 kts 236°
2026-04-10 17:32 51.99166 -56.74274 38042 ft 415 kts 236°
2026-04-10 17:33 51.95705 -56.81835 38082 ft 417 kts 236°
2026-04-10 17:33 51.92238 -56.89393 38101 ft 417 kts 236°
2026-04-10 17:34 51.88763 -56.96944 38106 ft 417 kts 236°
2026-04-10 17:34 51.85289 -57.04472 38117 ft 417 kts 236°
2026-04-10 17:35 51.81827 -57.11944 38089 ft 418 kts 236°
2026-04-10 17:35 51.78331 -57.19473 38154 ft 419 kts 237°
2026-04-10 17:36 51.74831 -57.26988 38119 ft 418 kts 237°
2026-04-10 17:36 51.71327 -57.34496 38114 ft 418 kts 236°
2026-04-10 17:37 51.67818 -57.41988 38116 ft 418 kts 236°
2026-04-10 17:37 51.64302 -57.49470 38099 ft 417 kts 237°
2026-04-10 17:38 51.60796 -57.56911 38116 ft 416 kts 237°
2026-04-10 17:38 51.57286 -57.64342 38116 ft 416 kts 237°
2026-04-10 17:39 51.53777 -57.71749 38107 ft 416 kts 236°
2026-04-10 17:39 51.50261 -57.79149 38095 ft 416 kts 236°
2026-04-10 17:40 51.46733 -57.86553 38098 ft 416 kts 236°
2026-04-10 17:40 51.43205 -57.93934 38099 ft 416 kts 236°
2026-04-10 17:41 51.39679 -58.01292 38098 ft 416 kts 236°
2026-04-10 17:41 51.36141 -58.08653 38097 ft 416 kts 236°
2026-04-10 17:42 51.32600 -58.15998 38099 ft 416 kts 236°
2026-04-10 17:42 51.29062 -58.23312 38091 ft 415 kts 236°
2026-04-10 17:43 51.25552 -58.30557 38104 ft 414 kts 236°
2026-04-10 17:43 51.22013 -58.37837 38093 ft 414 kts 236°
2026-04-10 17:44 51.18473 -58.45099 38100 ft 414 kts 236°
2026-04-10 17:44 51.14926 -58.52355 38090 ft 414 kts 236°
2026-04-10 17:45 51.11391 -58.59563 38099 ft 412 kts 236°
2026-04-10 17:45 51.07856 -58.66755 38127 ft 412 kts 236°
2026-04-10 17:46 51.04330 -58.73909 38111 ft 412 kts 236°
2026-04-10 17:46 51.00780 -58.81092 38111 ft 413 kts 236°
2026-04-10 17:47 50.97232 -58.88248 38118 ft 411 kts 236°
2026-04-10 17:47 50.93693 -58.95366 38106 ft 410 kts 236°
2026-04-10 17:48 50.90157 -59.02462 38105 ft 410 kts 236°
2026-04-10 17:48 50.86617 -59.09546 38114 ft 410 kts 236°
2026-04-10 17:49 50.83072 -59.16620 38119 ft 410 kts 236°
2026-04-10 17:49 50.79525 -59.23674 38096 ft 408 kts 236°
2026-04-10 17:50 50.75990 -59.30692 38119 ft 408 kts 236°
2026-04-10 17:50 50.72452 -59.37696 38121 ft 407 kts 236°
2026-04-10 17:51 50.68927 -59.44654 38132 ft 408 kts 236°
2026-04-10 17:51 50.65378 -59.51643 38122 ft 408 kts 236°
2026-04-10 17:52 50.61831 -59.58605 38122 ft 406 kts 236°
2026-04-10 17:52 50.58286 -59.65548 38125 ft 406 kts 236°
2026-04-10 17:53 50.54739 -59.72475 38135 ft 406 kts 236°
2026-04-10 17:53 50.51184 -59.79400 38138 ft 406 kts 236°
2026-04-10 17:54 50.47653 -59.86258 38110 ft 406 kts 236°
2026-04-10 17:54 50.44100 -59.93141 38144 ft 404 kts 236°
2026-04-10 17:55 50.40552 -59.99998 38147 ft 404 kts 236°
2026-04-10 17:55 50.36989 -60.06864 38158 ft 404 kts 236°
2026-04-10 17:56 50.33445 -60.13677 38144 ft 403 kts 236°
2026-04-10 17:56 50.29923 -60.20429 38135 ft 402 kts 236°
2026-04-10 17:57 50.26379 -60.27205 38144 ft 401 kts 236°
2026-04-10 17:57 50.22838 -60.33960 38146 ft 401 kts 236°
2026-04-10 17:58 50.19291 -60.40708 38149 ft 401 kts 236°
2026-04-10 17:58 50.15729 -60.47467 38148 ft 401 kts 236°
2026-04-10 17:59 50.12175 -60.54194 38136 ft 400 kts 235°
2026-04-10 17:59 50.08652 -60.60843 38141 ft 400 kts 235°
2026-04-10 18:00 50.05681 -60.66438 38140 ft 399 kts 235°
2026-04-10 18:00 50.02135 -60.73100 38156 ft 399 kts 235°
2026-04-10 18:01 49.98609 -60.79709 38140 ft 399 kts 235°
2026-04-10 18:01 49.95057 -60.86351 38129 ft 398 kts 235°
2026-04-10 18:02 49.91514 -60.92956 38143 ft 397 kts 235°
2026-04-10 18:02 49.87971 -60.99544 38147 ft 397 kts 235°
2026-04-10 18:03 49.84430 -61.06113 38148 ft 397 kts 235°
2026-04-10 18:03 49.80878 -61.12686 38141 ft 397 kts 234°
2026-04-10 18:04 49.77345 -61.19208 38140 ft 397 kts 234°
2026-04-10 18:04 49.73792 -61.25750 38145 ft 397 kts 234°
2026-04-10 18:05 49.70229 -61.32294 38145 ft 397 kts 234°
2026-04-10 18:05 49.66666 -61.38821 38148 ft 397 kts 234°
2026-04-10 18:06 49.63101 -61.45338 38117 ft 397 kts 234°
2026-04-10 18:06 49.59531 -61.51848 38143 ft 396 kts 234°
2026-04-10 18:07 49.55965 -61.58332 38152 ft 396 kts 234°
2026-04-10 18:07 49.52389 -61.64818 38147 ft 396 kts 234°
2026-04-10 18:08 49.48840 -61.71239 38153 ft 396 kts 234°
2026-04-10 18:08 49.45265 -61.77696 38140 ft 396 kts 234°
2026-04-10 18:09 49.39897 -61.87354 38153 ft 395 kts 234°
2026-04-10 18:10 49.36318 -61.93775 38161 ft 395 kts 234°
2026-04-10 18:10 49.32733 -62.00189 38161 ft 396 kts 233°
2026-04-10 18:11 49.29145 -62.06594 38141 ft 396 kts 233°
2026-04-10 18:11 49.25555 -62.12991 38169 ft 396 kts 233°
2026-04-10 18:12 49.21949 -62.19399 38298 ft 399 kts 233°
2026-04-10 18:12 49.20164 -62.22568 38672 ft 397 kts 233°
2026-04-10 18:12 49.18367 -62.25753 39023 ft 394 kts 233°
2026-04-10 18:12 49.16573 -62.28925 39261 ft 394 kts 233°
2026-04-10 18:13 49.14776 -62.32099 39423 ft 395 kts 232°
2026-04-10 18:13 49.12971 -62.35284 39568 ft 396 kts 232°
2026-04-10 18:13 49.11163 -62.38472 39706 ft 397 kts 232°
2026-04-10 18:13 49.09346 -62.41670 39861 ft 398 kts 232°
2026-04-10 18:14 49.07528 -62.44865 40025 ft 399 kts 232°
2026-04-10 18:14 49.05725 -62.48031 40152 ft 400 kts 232°
2026-04-10 18:14 49.03898 -62.51235 40168 ft 400 kts 232°
2026-04-10 18:15 49.00218 -62.57676 40180 ft 401 kts 232°
2026-04-10 18:15 48.96547 -62.64090 40182 ft 401 kts 232°
2026-04-10 18:16 48.92869 -62.70498 40170 ft 402 kts 232°
2026-04-10 18:16 48.89186 -62.76897 40171 ft 402 kts 232°
2026-04-10 18:17 48.85494 -62.83297 40168 ft 402 kts 232°
2026-04-10 18:17 48.81807 -62.89675 40168 ft 402 kts 232°
2026-04-10 18:18 48.78111 -62.96051 40143 ft 402 kts 232°
2026-04-10 18:18 48.74419 -63.02406 40163 ft 401 kts 232°
2026-04-10 18:19 48.70749 -63.08707 40169 ft 401 kts 232°
2026-04-10 18:19 48.67053 -63.15040 40163 ft 401 kts 231°
2026-04-10 18:20 48.63346 -63.21374 40161 ft 401 kts 231°
2026-04-10 18:20 48.59645 -63.27684 40156 ft 401 kts 231°
2026-04-10 18:21 48.55940 -63.33985 40160 ft 400 kts 231°
2026-04-10 18:21 48.52230 -63.40278 40165 ft 400 kts 231°
2026-04-10 18:22 48.48523 -63.46553 40160 ft 400 kts 231°
2026-04-10 18:22 48.44836 -63.52779 40141 ft 400 kts 231°
2026-04-10 18:23 48.41129 -63.59024 40163 ft 399 kts 231°
2026-04-10 18:23 48.37422 -63.65254 40166 ft 399 kts 231°
2026-04-10 18:24 48.33713 -63.71474 40171 ft 399 kts 231°
2026-04-10 18:24 48.29999 -63.77685 40171 ft 399 kts 231°
2026-04-10 18:25 48.26310 -63.83843 40157 ft 399 kts 231°
2026-04-10 18:25 48.22589 -63.90041 40176 ft 400 kts 231°
2026-04-10 18:26 48.18857 -63.96238 40171 ft 400 kts 231°
2026-04-10 18:26 48.15119 -64.02431 40171 ft 400 kts 231°
2026-04-10 18:27 48.11378 -64.08615 40170 ft 400 kts 231°
2026-04-10 18:27 48.07635 -64.14789 40174 ft 400 kts 231°
2026-04-10 18:28 48.03914 -64.20911 40172 ft 400 kts 231°
2026-04-10 18:28 48.00165 -64.27067 40168 ft 400 kts 231°
2026-04-10 18:29 47.96417 -64.33205 40171 ft 400 kts 231°
2026-04-10 18:29 47.92664 -64.39337 40152 ft 399 kts 231°
2026-04-10 18:30 47.88911 -64.45455 40167 ft 399 kts 230°
2026-04-10 18:30 47.85158 -64.51560 40171 ft 399 kts 230°
2026-04-10 18:31 47.81402 -64.57654 40162 ft 399 kts 230°
2026-04-10 18:31 47.77643 -64.63741 40147 ft 399 kts 230°
2026-04-10 18:32 47.73894 -64.69799 40156 ft 400 kts 230°
2026-04-10 18:32 47.70118 -64.75883 40162 ft 400 kts 230°
2026-04-10 18:33 47.66333 -64.81968 40159 ft 400 kts 230°
2026-04-10 18:33 47.62549 -64.88038 40160 ft 400 kts 230°
2026-04-10 18:34 47.58765 -64.94097 40157 ft 401 kts 230°
2026-04-10 18:34 47.54999 -65.00114 40169 ft 401 kts 230°
2026-04-10 18:35 47.51194 -65.06177 40168 ft 401 kts 230°
2026-04-10 18:35 47.47388 -65.12224 40169 ft 401 kts 229°
2026-04-10 18:36 47.43575 -65.18271 40144 ft 401 kts 229°
2026-04-10 18:36 47.39760 -65.24308 40166 ft 402 kts 229°
2026-04-10 18:37 47.35940 -65.30338 40168 ft 401 kts 229°
2026-04-10 18:37 47.32145 -65.36315 40175 ft 401 kts 229°
2026-04-10 18:38 47.28320 -65.42326 40171 ft 401 kts 229°
2026-04-10 18:38 47.24491 -65.48333 40163 ft 402 kts 229°
2026-04-10 18:39 47.20652 -65.54337 40173 ft 403 kts 229°
2026-04-10 18:39 47.16806 -65.60340 40176 ft 403 kts 229°
2026-04-10 18:40 47.12956 -65.66337 40174 ft 403 kts 229°
2026-04-10 18:40 47.09106 -65.72319 40159 ft 403 kts 229°
2026-04-10 18:41 47.05238 -65.78316 40178 ft 404 kts 229°
2026-04-10 18:41 47.01384 -65.84278 40175 ft 404 kts 229°
2026-04-10 18:42 46.97505 -65.90264 40173 ft 404 kts 229°
2026-04-10 18:42 46.93623 -65.96242 40139 ft 405 kts 229°
2026-04-10 18:43 46.89724 -66.02232 40172 ft 407 kts 229°
2026-04-10 18:43 46.85836 -66.08195 40185 ft 407 kts 228°
2026-04-10 18:44 46.81919 -66.14191 40175 ft 407 kts 228°
2026-04-10 18:44 46.77996 -66.20176 40179 ft 407 kts 228°
2026-04-10 18:45 46.74061 -66.26165 40166 ft 409 kts 228°
2026-04-10 18:45 46.70119 -66.32153 40166 ft 409 kts 228°
2026-04-10 18:46 46.66171 -66.38138 40165 ft 409 kts 228°
2026-04-10 18:46 46.62246 -66.44074 40166 ft 409 kts 228°
2026-04-10 18:47 46.58289 -66.50045 40153 ft 409 kts 228°
2026-04-10 18:47 46.54327 -66.56011 40165 ft 410 kts 228°
2026-04-10 18:48 46.50365 -66.61964 40165 ft 409 kts 228°
2026-04-10 18:48 46.46400 -66.67908 40165 ft 409 kts 228°
2026-04-10 18:49 46.42455 -66.73807 40165 ft 409 kts 228°
2026-04-10 18:49 46.38487 -66.79730 40169 ft 409 kts 228°
2026-04-10 18:50 46.35158 -66.84688 40171 ft 409 kts 228°
2026-04-10 18:50 46.31183 -66.90596 40169 ft 409 kts 228°
2026-04-10 18:51 46.27232 -66.96456 40144 ft 410 kts 228°
2026-04-10 18:51 46.23237 -67.02369 40165 ft 411 kts 227°
2026-04-10 18:52 46.19226 -67.08289 40171 ft 412 kts 227°
2026-04-10 18:52 46.15216 -67.14193 40173 ft 411 kts 228°
2026-04-10 18:53 46.11204 -67.20092 40153 ft 411 kts 227°
2026-04-10 18:53 46.07181 -67.25994 40169 ft 413 kts 227°
2026-04-10 18:54 46.03149 -67.31895 40172 ft 413 kts 227°
2026-04-10 18:54 45.99141 -67.37745 40174 ft 413 kts 227°
2026-04-10 18:55 45.95099 -67.43636 40173 ft 413 kts 227°
2026-04-10 18:55 45.91046 -67.49529 40171 ft 415 kts 227°
2026-04-10 18:56 45.86981 -67.55425 40168 ft 415 kts 227°
2026-04-10 18:56 45.82914 -67.61310 40170 ft 415 kts 227°
2026-04-10 18:57 45.78847 -67.67183 40175 ft 415 kts 227°
2026-04-10 18:57 45.74767 -67.73063 40176 ft 416 kts 227°
2026-04-10 18:58 45.70668 -67.78953 40180 ft 417 kts 227°
2026-04-10 18:58 45.66627 -67.84901 40184 ft 417 kts 228°
2026-04-10 18:59 45.62626 -67.90908 40185 ft 416 kts 228°
2026-04-10 18:59 45.58645 -67.96863 40189 ft 417 kts 228°
2026-04-10 19:00 45.54625 -68.02855 40194 ft 418 kts 228°
2026-04-10 19:00 45.50594 -68.08847 40212 ft 417 kts 228°
2026-04-10 19:01 45.46570 -68.14811 40202 ft 417 kts 228°
2026-04-10 19:01 45.42542 -68.20769 40204 ft 417 kts 228°
2026-04-10 19:02 45.38508 -68.26724 40206 ft 417 kts 228°
2026-04-10 19:02 45.34474 -68.32665 40203 ft 417 kts 228°
2026-04-10 19:03 45.30437 -68.38595 40204 ft 417 kts 228°
2026-04-10 19:03 45.26418 -68.44489 40209 ft 418 kts 228°
2026-04-10 19:04 45.22366 -68.50418 40212 ft 418 kts 228°
2026-04-10 19:04 45.18308 -68.56341 40208 ft 418 kts 228°
2026-04-10 19:05 45.14253 -68.62247 40212 ft 418 kts 228°
2026-04-10 19:05 45.10189 -68.68155 40192 ft 419 kts 227°
2026-04-10 19:06 45.06116 -68.74061 40195 ft 419 kts 227°
2026-04-10 19:06 45.02039 -68.79961 40197 ft 419 kts 227°
2026-04-10 19:07 44.97992 -68.85805 40210 ft 419 kts 227°
2026-04-10 19:07 44.93902 -68.91697 40202 ft 420 kts 227°
2026-04-10 19:08 44.89803 -68.97590 40207 ft 420 kts 227°
2026-04-10 19:08 44.85711 -69.03462 40209 ft 419 kts 227°
2026-04-10 19:09 44.81614 -69.09326 40201 ft 419 kts 227°
2026-04-10 19:09 44.77516 -69.15181 40194 ft 419 kts 227°
2026-04-10 19:10 44.73415 -69.21028 40193 ft 419 kts 227°
2026-04-10 19:10 44.69311 -69.26866 40188 ft 419 kts 227°
2026-04-10 19:11 44.65204 -69.32694 40174 ft 420 kts 227°
2026-04-10 19:11 44.61078 -69.38539 40169 ft 421 kts 227°
2026-04-10 19:12 44.56942 -69.44383 40168 ft 421 kts 227°
2026-04-10 19:12 44.52836 -69.50174 40169 ft 421 kts 227°
2026-04-10 19:13 44.48694 -69.56002 40149 ft 422 kts 227°
2026-04-10 19:13 44.44532 -69.61846 40159 ft 423 kts 227°
2026-04-10 19:14 44.40367 -69.67682 40190 ft 423 kts 227°
2026-04-10 19:14 44.36197 -69.73513 40193 ft 423 kts 227°
2026-04-10 19:15 44.32024 -69.79335 40187 ft 425 kts 227°
2026-04-10 19:15 44.27832 -69.85173 40224 ft 425 kts 227°
2026-04-10 19:16 44.23649 -69.90984 40207 ft 424 kts 227°
2026-04-10 19:16 44.19470 -69.96777 40201 ft 423 kts 227°
2026-04-10 19:17 44.13215 -70.05426 40194 ft 424 kts 227°
2026-04-10 19:17 44.09021 -70.11210 40187 ft 424 kts 227°
2026-04-10 19:18 44.04822 -70.16989 40187 ft 424 kts 227°
2026-04-10 19:18 44.00617 -70.22765 40176 ft 425 kts 227°
2026-04-10 19:19 43.96401 -70.28541 40181 ft 426 kts 227°
2026-04-10 19:19 43.92179 -70.34315 40188 ft 426 kts 227°
2026-04-10 19:20 43.87956 -70.40078 40186 ft 425 kts 226°
2026-04-10 19:20 43.83722 -70.45844 40170 ft 427 kts 226°
2026-04-10 19:21 43.79506 -70.51573 40180 ft 427 kts 226°
2026-04-10 19:21 43.75254 -70.57337 40185 ft 427 kts 226°
2026-04-10 19:22 43.71001 -70.63093 40177 ft 427 kts 226°
2026-04-10 19:22 43.66740 -70.68848 40186 ft 427 kts 226°
2026-04-10 19:23 43.62486 -70.74576 40179 ft 427 kts 226°
2026-04-10 19:23 43.58208 -70.80265 40181 ft 427 kts 224°
2026-04-10 19:24 43.53620 -70.85491 40168 ft 429 kts 219°
2026-04-10 19:24 43.48649 -70.90112 40176 ft 432 kts 214°
2026-04-10 19:25 43.43423 -70.94231 40174 ft 433 kts 213°
2026-04-10 19:25 43.38218 -70.98316 40148 ft 433 kts 213°
2026-04-10 19:26 43.32969 -71.02415 40171 ft 435 kts 213°
2026-04-10 19:26 43.27701 -71.06513 40174 ft 435 kts 213°
2026-04-10 19:27 43.22432 -71.10602 40175 ft 435 kts 213°
2026-04-10 19:27 43.17161 -71.14683 40175 ft 435 kts 212°
2026-04-10 19:28 43.11991 -71.18980 40181 ft 433 kts 217°
2026-04-10 19:28 43.07192 -71.23948 40185 ft 431 kts 223°
2026-04-10 19:29 43.02818 -71.29549 40156 ft 431 kts 228°
2026-04-10 19:29 42.98883 -71.35738 40158 ft 430 kts 232°
2026-04-10 19:30 42.95128 -71.42030 40155 ft 430 kts 232°
2026-04-10 19:30 42.91340 -71.48368 40156 ft 430 kts 232°
2026-04-10 19:31 42.87549 -71.54702 40165 ft 432 kts 232°
2026-04-10 19:31 42.83746 -71.61053 40177 ft 431 kts 232°
2026-04-10 19:32 42.79950 -71.67377 40178 ft 430 kts 232°
2026-04-10 19:32 42.76154 -71.73689 40180 ft 430 kts 232°
2026-04-10 19:33 42.72371 -71.79960 40184 ft 432 kts 232°
2026-04-10 19:33 42.68543 -71.86300 40182 ft 433 kts 232°
2026-04-10 19:34 42.64704 -71.92643 40193 ft 433 kts 232°
2026-04-10 19:34 42.60883 -71.98943 40189 ft 431 kts 232°
2026-04-10 19:35 42.57087 -72.05184 40189 ft 432 kts 232°
2026-04-10 19:35 42.53241 -72.11497 40197 ft 433 kts 232°
2026-04-10 19:36 42.49398 -72.17792 40210 ft 433 kts 232°
2026-04-10 19:36 42.45552 -72.24078 40201 ft 433 kts 232°
2026-04-10 19:37 42.41702 -72.30358 40194 ft 433 kts 232°
2026-04-10 19:37 42.38488 -72.35588 40198 ft 434 kts 232°
2026-04-10 19:38 42.33991 -72.42895 40178 ft 434 kts 232°
2026-04-10 19:38 42.30118 -72.49171 40184 ft 434 kts 232°
2026-04-10 19:39 42.26871 -72.54420 40163 ft 435 kts 232°
2026-04-10 19:39 42.22996 -72.60676 40182 ft 437 kts 232°
2026-04-10 19:40 42.19100 -72.66955 40176 ft 435 kts 232°
2026-04-10 19:40 42.15222 -72.73227 40192 ft 434 kts 233°
2026-04-10 19:41 42.11485 -72.79641 40179 ft 435 kts 233°
2026-04-10 19:41 42.07745 -72.86075 40190 ft 436 kts 233°
2026-04-10 19:42 42.03989 -72.92500 40197 ft 436 kts 233°
2026-04-10 19:42 42.00228 -72.98908 40212 ft 435 kts 233°
2026-04-10 19:43 41.96475 -73.05279 40218 ft 435 kts 233°
2026-04-10 19:43 41.92704 -73.11667 40222 ft 437 kts 233°
2026-04-10 19:44 41.88917 -73.18067 40226 ft 437 kts 233°
2026-04-10 19:44 41.85148 -73.24421 40227 ft 437 kts 233°
2026-04-10 19:45 41.81351 -73.30805 40238 ft 437 kts 233°
2026-04-10 19:45 41.77556 -73.37186 40211 ft 438 kts 233°
2026-04-10 19:46 41.73749 -73.43578 40224 ft 438 kts 233°
2026-04-10 19:46 41.69938 -73.49964 40217 ft 439 kts 233°
2026-04-10 19:47 41.66122 -73.56342 40210 ft 438 kts 233°
2026-04-10 19:47 41.62305 -73.62708 40209 ft 438 kts 233°
2026-04-10 19:48 41.58485 -73.69065 40207 ft 437 kts 233°
2026-04-10 19:48 41.54698 -73.75350 40204 ft 436 kts 233°
2026-04-10 19:49 41.50811 -73.81591 40202 ft 437 kts 230°
2026-04-10 19:49 41.46574 -73.87431 40210 ft 438 kts 227°
2026-04-10 19:50 41.42285 -73.93227 40214 ft 439 kts 227°
2026-04-10 19:50 41.37976 -73.99032 40223 ft 440 kts 227°
2026-04-10 19:51 41.33669 -74.04819 40225 ft 439 kts 227°
2026-04-10 19:51 41.29381 -74.10564 40199 ft 439 kts 227°
2026-04-10 19:52 41.25061 -74.16339 40224 ft 440 kts 227°
2026-04-10 19:52 41.20875 -74.22318 40229 ft 439 kts 231°
2026-04-10 19:53 41.17168 -74.28762 40237 ft 438 kts 237°
2026-04-10 19:53 41.13915 -74.35593 40235 ft 437 kts 239°
2026-04-10 19:54 41.10725 -74.42497 40232 ft 440 kts 240°
2026-04-10 19:54 41.07508 -74.49457 40233 ft 441 kts 240°
2026-04-10 19:55 41.04299 -74.56387 40234 ft 441 kts 239°
2026-04-10 19:55 41.01077 -74.63329 40236 ft 441 kts 239°
2026-04-10 19:56 40.97862 -74.70242 40240 ft 441 kts 239°
2026-04-10 19:56 40.94661 -74.77105 40231 ft 441 kts 239°
2026-04-10 19:57 40.91427 -74.84028 40240 ft 441 kts 239°
2026-04-10 19:57 40.88189 -74.90936 40244 ft 441 kts 239°
2026-04-10 19:58 40.84944 -74.97841 40248 ft 441 kts 239°
2026-04-10 19:58 40.81691 -75.04747 40248 ft 441 kts 239°
2026-04-10 19:59 40.78430 -75.11650 40235 ft 442 kts 239°
2026-04-10 19:59 40.75172 -75.18536 40225 ft 442 kts 239°
2026-04-10 20:00 40.71932 -75.25370 40149 ft 442 kts 239°
2026-04-10 20:00 40.70298 -75.28809 39899 ft 441 kts 239°
2026-04-10 20:00 40.68668 -75.32233 39633 ft 438 kts 239°
2026-04-10 20:01 40.67052 -75.35626 39330 ft 436 kts 239°
2026-04-10 20:01 40.65483 -75.39042 38900 ft 435 kts 242°
2026-04-10 20:01 40.63988 -75.42513 38335 ft 435 kts 242°
2026-04-10 20:01 40.62495 -75.45977 37794 ft 434 kts 242°
2026-04-10 20:02 40.61003 -75.49433 37283 ft 433 kts 243°
2026-04-10 20:02 40.59509 -75.52889 36725 ft 434 kts 243°
2026-04-10 20:02 40.58016 -75.56341 36141 ft 434 kts 244°
2026-04-10 20:02 40.56521 -75.59797 35589 ft 434 kts 244°
2026-04-10 20:03 40.55029 -75.63243 35033 ft 434 kts 245°
2026-04-10 20:03 40.53533 -75.66696 34464 ft 434 kts 245°
2026-04-10 20:03 40.52036 -75.70150 33849 ft 434 kts 245°
2026-04-10 20:03 40.50546 -75.73599 33222 ft 433 kts 245°
2026-04-10 20:04 40.49054 -75.77044 32663 ft 432 kts 245°
2026-04-10 20:04 40.47565 -75.80469 32084 ft 431 kts 244°
2026-04-10 20:04 40.45986 -75.83832 31517 ft 434 kts 241°
2026-04-10 20:04 40.44254 -75.87089 30912 ft 436 kts 237°
2026-04-10 20:05 40.42370 -75.90226 30276 ft 438 kts 234°
2026-04-10 20:05 40.40344 -75.93223 29477 ft 441 kts 231°
2026-04-10 20:05 40.38174 -75.96083 28701 ft 442 kts 228°
2026-04-10 20:05 40.35968 -75.98886 28020 ft 441 kts 228°
2026-04-10 20:06 40.33772 -76.01672 27408 ft 439 kts 228°
2026-04-10 20:06 40.31566 -76.04467 27004 ft 440 kts 228°
2026-04-10 20:06 40.29374 -76.07240 26574 ft 436 kts 227°
2026-04-10 20:06 40.27191 -76.09999 26125 ft 433 kts 227°
2026-04-10 20:07 40.22877 -76.15443 25244 ft 426 kts 227°
2026-04-10 20:07 40.20753 -76.18121 24790 ft 422 kts 227°
2026-04-10 20:07 40.18640 -76.20782 24339 ft 419 kts 227°
2026-04-10 20:08 40.16550 -76.23412 23894 ft 415 kts 227°
2026-04-10 20:08 40.14491 -76.26044 23386 ft 411 kts 229°
2026-04-10 20:08 40.12601 -76.28815 22909 ft 405 kts 233°
2026-04-10 20:08 40.10914 -76.31719 22446 ft 399 kts 237°
2026-04-10 20:09 40.09417 -76.34751 21969 ft 394 kts 241°
2026-04-10 20:09 40.08005 -76.37788 21547 ft 389 kts 241°
2026-04-10 20:09 40.06611 -76.40808 21126 ft 386 kts 241°
2026-04-10 20:09 40.05229 -76.43804 20684 ft 383 kts 241°
2026-04-10 20:10 40.03874 -76.46739 20253 ft 380 kts 241°
2026-04-10 20:10 40.02513 -76.49684 19818 ft 377 kts 241°
2026-04-10 20:10 40.01161 -76.52600 19366 ft 374 kts 241°
2026-04-10 20:10 39.99823 -76.55487 18922 ft 371 kts 241°
2026-04-10 20:11 39.98489 -76.58361 18483 ft 368 kts 241°
2026-04-10 20:11 39.97164 -76.61212 17972 ft 366 kts 241°
2026-04-10 20:11 39.95850 -76.64037 17540 ft 362 kts 241°
2026-04-10 20:11 39.94547 -76.66838 17099 ft 359 kts 241°
2026-04-10 20:12 39.93255 -76.69613 16673 ft 356 kts 241°
2026-04-10 20:12 39.91965 -76.72378 16238 ft 353 kts 241°
2026-04-10 20:12 39.90694 -76.75102 15809 ft 350 kts 241°
2026-04-10 20:12 39.89423 -76.77824 15385 ft 348 kts 241°
2026-04-10 20:13 39.88168 -76.80508 14966 ft 346 kts 241°
2026-04-10 20:13 39.86914 -76.83189 14550 ft 344 kts 241°
2026-04-10 20:13 39.85686 -76.85808 14137 ft 342 kts 241°
2026-04-10 20:13 39.84446 -76.88450 13716 ft 340 kts 241°
2026-04-10 20:14 39.83219 -76.91069 13275 ft 336 kts 241°
2026-04-10 20:14 39.82004 -76.93658 12865 ft 333 kts 241°
2026-04-10 20:14 39.80802 -76.96219 12449 ft 330 kts 241°
2026-04-10 20:14 39.79610 -76.98756 12029 ft 327 kts 241°
2026-04-10 20:15 39.78427 -77.01273 11616 ft 324 kts 240°
2026-04-10 20:15 39.77252 -77.03769 11189 ft 322 kts 240°
2026-04-10 20:15 39.76089 -77.06239 10871 ft 316 kts 240°
2026-04-10 20:15 39.74957 -77.08634 10624 ft 305 kts 240°
2026-04-10 20:16 39.73864 -77.10943 10358 ft 292 kts 240°
2026-04-10 20:16 39.72824 -77.13141 10128 ft 279 kts 240°
2026-04-10 20:16 39.71834 -77.15235 10051 ft 263 kts 241°
2026-04-10 20:16 39.70882 -77.17250 10036 ft 260 kts 241°
2026-04-10 20:17 39.69935 -77.19250 10017 ft 259 kts 241°
2026-04-10 20:17 39.68963 -77.21237 10013 ft 260 kts 237°
2026-04-10 20:17 39.67825 -77.23078 10015 ft 262 kts 231°
2026-04-10 20:17 39.66542 -77.24725 9889 ft 257 kts 227°
2026-04-10 20:18 39.65233 -77.26313 9428 ft 259 kts 227°
2026-04-10 20:18 39.63933 -77.27878 9070 ft 257 kts 227°
2026-04-10 20:18 39.62618 -77.29456 9051 ft 258 kts 227°
2026-04-10 20:18 39.61296 -77.31044 9051 ft 259 kts 227°
2026-04-10 20:19 39.59824 -77.32413 9031 ft 265 kts 210°
2026-04-10 20:19 39.58038 -77.33193 9041 ft 271 kts 200°
2026-04-10 20:19 39.56176 -77.33662 9043 ft 274 kts 195°
2026-04-10 20:19 39.54289 -77.34063 8950 ft 275 kts 195°
2026-04-10 20:20 39.52401 -77.34474 8783 ft 275 kts 195°
2026-04-10 20:20 39.50519 -77.34900 8588 ft 274 kts 195°
2026-04-10 20:20 39.48650 -77.35340 8337 ft 272 kts 196°
2026-04-10 20:20 39.46794 -77.35789 8056 ft 271 kts 196°
2026-04-10 20:21 39.44942 -77.36239 7754 ft 270 kts 196°
2026-04-10 20:21 39.43104 -77.36694 7469 ft 268 kts 196°
2026-04-10 20:21 39.41273 -77.37146 7177 ft 267 kts 196°
2026-04-10 20:21 39.39448 -77.37599 6891 ft 267 kts 196°
2026-04-10 20:22 39.37629 -77.38048 6586 ft 265 kts 196°
2026-04-10 20:22 39.35823 -77.38498 6277 ft 263 kts 195°
2026-04-10 20:22 39.34026 -77.38944 6033 ft 259 kts 195°
2026-04-10 20:22 39.32278 -77.39381 5798 ft 254 kts 195°
2026-04-10 20:23 39.30547 -77.39811 5570 ft 254 kts 194°
2026-04-10 20:23 39.28815 -77.40241 5352 ft 252 kts 194°
2026-04-10 20:23 39.27092 -77.40669 5120 ft 252 kts 194°
2026-04-10 20:23 39.25384 -77.41091 4890 ft 248 kts 194°
2026-04-10 20:24 39.23727 -77.41501 4641 ft 243 kts 194°
2026-04-10 20:24 39.22088 -77.41906 4393 ft 235 kts 194°
2026-04-10 20:24 39.20497 -77.42299 4177 ft 231 kts 193°
2026-04-10 20:24 39.18947 -77.42684 4012 ft 223 kts 193°
2026-04-10 20:25 39.17912 -77.42943 4041 ft 225 kts 193°
2026-04-10 20:25 39.16380 -77.43205 3991 ft 216 kts 187°
2026-04-10 20:25 39.14922 -77.43300 3960 ft 207 kts 185°
2026-04-10 20:25 39.13496 -77.43335 3796 ft 204 kts 184°
2026-04-10 20:26 39.12110 -77.43353 3548 ft 200 kts 183°
2026-04-10 20:26 39.10723 -77.43370 3248 ft 197 kts 181°
2026-04-10 20:26 39.09357 -77.43389 2996 ft 195 kts 182°
2026-04-10 20:26 39.08007 -77.43412 2712 ft 192 kts 181°
2026-04-10 20:27 39.06709 -77.43432 2440 ft 181 kts 181°
2026-04-10 20:27 39.05480 -77.43451 2203 ft 172 kts 180°
2026-04-10 20:27 39.04329 -77.43467 1982 ft 159 kts 180°
2026-04-10 20:27 39.03240 -77.43484 1790 ft 155 kts 181°
2026-04-10 20:28 39.02166 -77.43502 1585 ft 154 kts 180°
2026-04-10 20:28 39.01099 -77.43518 1414 ft 154 kts 179°
2026-04-10 20:28 39.00030 -77.43541 1163 ft 153 kts 178°
2026-04-10 20:28 38.98971 -77.43526 1001 ft 153 kts 181°
2026-04-10 20:29 38.97910 -77.43561 785 ft 151 kts 180°
2026-04-10 20:29 38.96858 -77.43573 580 ft 150 kts 180°
2026-04-10 20:29 38.95836 -77.43591 395 ft 143 kts 180°
2026-04-10 20:29 38.94856 -77.43604 309 ft 124 kts 181°
2026-04-10 20:30 38.94187 -77.43616 314 ft 70 kts 181°
2026-04-10 20:30 38.93741 -77.43624 312 ft 50 kts 181°
2026-04-10 20:30 38.93484 -77.43686 310 ft 33 kts 204°
2026-04-10 20:30 38.93344 -77.43787 307 ft 21 kts 218°
2026-04-10 20:31 38.93351 -77.43881 303 ft 13 kts 342°
2026-04-10 20:31 38.93462 -77.43883 302 ft 18 kts
2026-04-10 20:31 38.93601 -77.43881 304 ft 21 kts
2026-04-10 20:31 38.93760 -77.43878 303 ft 24 kts
2026-04-10 20:32 38.93933 -77.43875 304 ft 23 kts
2026-04-10 20:32 38.94101 -77.43871 304 ft 26 kts
2026-04-10 20:32 38.94289 -77.43869 304 ft 27 kts
2026-04-10 20:32 38.94462 -77.43868 303 ft 26 kts
2026-04-10 20:33 38.94633 -77.43865 302 ft 24 kts
2026-04-10 20:33 38.94810 -77.43862 303 ft 22 kts
2026-04-10 20:33 38.94949 -77.43860 306 ft 14 kts
2026-04-10 20:33 38.95005 -77.43902 304 ft 11 kts 284°
2026-04-10 20:34 38.95019 -77.44021 301 ft 15 kts 271°
2026-04-10 20:34 38.95021 -77.44167 301 ft 17 kts 271°
2026-04-10 20:34 38.95023 -77.44335 301 ft 20 kts 270°
2026-04-10 20:34 38.95025 -77.44520 302 ft 20 kts 270°
2026-04-10 20:35 38.95026 -77.44700 301 ft 20 kts 270°
2026-04-10 20:35 38.95027 -77.44834 301 ft 11 kts 270°
2026-04-10 20:35 38.95028 -77.44882 301 ft 3 kts 270°
2026-04-10 20:35 38.95027 -77.44940 301 ft 9 kts 265°
2026-04-10 20:36 38.94991 -77.44992 301 ft 9 kts 206°
2026-04-10 20:36 38.94972 -77.45002 303 ft 1 kts 204°
2026-04-10 20:36 38.94957 -77.45010 305 ft 3 kts 201°
2026-04-10 20:36 38.94947 -77.45015 302 ft 0 kts 199°
2026-04-10 20:37 38.94941 -77.45018 304 ft 0 kts 200°